Skip Navigation
Skip Navigation

Today's Weather Data

Time Wind Dir Wind Spd
mph
Wind Gust
mph
Hum In
%
Humidity
%
Temp In
F
Temp
F
Raw Barom
in
Tot Rain
in
UV Solar
W/sqm
DailyRain
in
HourRain
in
24HrRain
in
RainRate
in/hr
11/17/2017 12:01:04a 229 0 0 25 54 79.3 62.0 29.99 0.52 0.0 0 0.00 0.00 0.00 0.000
11/17/2017 12:02:04a 229 0 0 25 54 79.3 62.0 29.99 0.52 0.0 0 0.00 0.00 0.00 0.000
11/17/2017 12:03:04a 229 0 0 25 54 79.3 62.0 30.00 0.52 0.0 0 0.00 0.00 0.00 0.000
11/17/2017 12:04:05a 229 2 2 25 54 79.3 62.0 30.00 0.52 0.0 0 0.00 0.00 0.00 0.000
11/17/2017 12:05:08a 229 2 3 25 53 79.3 61.9 30.00 0.52 0.0 0 0.00 0.00 0.00 0.000
11/17/2017 12:06:08a 229 2 3 25 53 79.3 61.9 30.00 0.52 0.0 0 0.00 0.00 0.00 0.000
11/17/2017 12:07:09a 229 2 3 25 53 79.3 61.9 30.00 0.52 0.0 0 0.00 0.00 0.00 0.000
11/17/2017 12:08:09a 229 2 3 25 53 79.3 61.9 30.00 0.52 0.0 0 0.00 0.00 0.00 0.000
11/17/2017 12:10:09a 229 1 3 25 53 79.3 61.8 30.00 0.52 0.0 0 0.00 0.00 0.00 0.000
11/17/2017 12:11:10a 229 1 3 25 53 79.3 61.8 30.00 0.52 0.0 0 0.00 0.00 0.00 0.000
11/17/2017 12:12:13a 229 1 3 25 53 79.3 61.8 30.00 0.52 0.0 0 0.00 0.00 0.00 0.000
11/17/2017 12:13:13a 229 2 3 25 53 79.3 61.8 30.00 0.52 0.0 0 0.00 0.00 0.00 0.000
11/17/2017 12:14:16a 229 2 3 25 53 79.3 61.7 30.00 0.52 0.0 0 0.00 0.00 0.00 0.000
11/17/2017 12:16:17a 229 1 3 25 53 79.3 61.7 30.00 0.52 0.0 0 0.00 0.00 0.00 0.000
11/17/2017 12:17:17a 229 1 3 25 53 79.3 61.7 30.00 0.52 0.0 0 0.00 0.00 0.00 0.000
11/17/2017 12:19:21a 229 3 3 25 53 79.1 61.7 30.00 0.52 0.0 0 0.00 0.00 0.00 0.000
11/17/2017 12:20:22a 229 3 3 25 53 79.1 61.7 30.00 0.52 0.0 0 0.00 0.00 0.00 0.000
11/17/2017 12:21:22a 229 3 3 25 53 79.1 61.7 30.00 0.52 0.0 0 0.00 0.00 0.00 0.000
11/17/2017 12:22:25a 229 2 3 25 53 79.1 61.6 30.00 0.52 0.0 0 0.00 0.00 0.00 0.000
11/17/2017 12:23:26a 229 2 3 25 53 79.1 61.6 30.00 0.52 0.0 0 0.00 0.00 0.00 0.000
11/17/2017 12:24:26a 229 2 3 25 53 79.1 61.6 30.00 0.52 0.0 0 0.00 0.00 0.00 0.000
11/17/2017 12:25:26a 229 0 3 25 53 79.1 61.6 30.00 0.52 0.0 0 0.00 0.00 0.00 0.000
11/17/2017 12:26:30a 229 0 3 25 53 79.1 61.6 30.00 0.52 0.0 0 0.00 0.00 0.00 0.000
11/17/2017 12:27:33a 229 0 3 25 53 79.1 61.5 30.00 0.52 0.0 0 0.00 0.00 0.00 0.000
11/17/2017 12:28:36a 229 1 3 25 53 79.1 61.5 30.00 0.52 0.0 0 0.00 0.00 0.00 0.000
11/17/2017 12:30:37a 229 1 3 25 53 79.1 61.5 29.99 0.52 0.0 0 0.00 0.00 0.00 0.000
11/17/2017 12:31:37a 229 1 3 25 53 79.1 61.5 29.99 0.52 0.0 0 0.00 0.00 0.00 0.000
11/17/2017 12:32:41a 229 0 1 25 54 79.1 61.6 29.99 0.52 0.0 0 0.00 0.00 0.00 0.000
11/17/2017 12:33:41a 229 0 1 25 54 79.1 61.6 29.99 0.52 0.0 0 0.00 0.00 0.00 0.000
11/17/2017 12:34:44a 229 2 2 25 54 79.1 61.6 29.99 0.52 0.0 0 0.00 0.00 0.00 0.000
11/17/2017 12:35:51a 229 2 2 25 54 79.1 61.6 29.99 0.52 0.0 0 0.00 0.00 0.00 0.000
11/17/2017 12:36:51a 229 2 2 25 54 79.1 61.6 29.99 0.52 0.0 0 0.00 0.00 0.00 0.000
11/17/2017 12:37:52a 229 2 2 25 54 79.1 61.8 29.99 0.52 0.0 0 0.00 0.00 0.00 0.000
11/17/2017 12:39:52a 229 2 3 25 54 78.9 62.0 29.99 0.52 0.0 0 0.00 0.00 0.00 0.000
11/17/2017 12:40:52a 229 2 3 25 54 78.9 62.1 29.99 0.52 0.0 0 0.00 0.00 0.00 0.000
11/17/2017 12:41:53a 229 2 3 25 54 78.9 62.1 29.99 0.52 0.0 0 0.00 0.00 0.00 0.000
11/17/2017 12:42:56a 229 1 3 25 54 78.9 62.3 29.99 0.52 0.0 0 0.00 0.00 0.00 0.000
11/17/2017 12:43:56a 229 0 3 25 54 78.9 62.4 29.98 0.52 0.0 0 0.00 0.00 0.00 0.000
11/17/2017 12:45:57a 229 0 3 25 54 78.9 62.4 29.99 0.52 0.0 0 0.00 0.00 0.00 0.000
11/17/2017 12:46:57a 229 0 3 25 54 78.9 62.4 29.99 0.52 0.0 0 0.00 0.00 0.00 0.000
11/17/2017 12:48:01a 229 0 0 25 53 78.9 62.5 29.98 0.52 0.0 0 0.00 0.00 0.00 0.000
11/17/2017 12:49:01a 229 0 0 25 53 78.9 62.5 29.98 0.52 0.0 0 0.00 0.00 0.00 0.000
11/17/2017 12:50:01a 229 0 0 25 53 78.9 62.5 29.98 0.52 0.0 0 0.00 0.00 0.00 0.000
11/17/2017 12:52:05a 229 0 0 25 53 78.9 62.5 29.98 0.52 0.0 0 0.00 0.00 0.00 0.000
11/17/2017 12:53:05a 229 0 0 25 53 78.9 62.5 29.98 0.52 0.0 0 0.00 0.00 0.00 0.000
11/17/2017 12:54:05a 229 0 0 25 53 78.9 62.5 29.98 0.52 0.0 0 0.00 0.00 0.00 0.000
11/17/2017 12:55:06a 229 0 0 25 53 78.9 62.6 29.98 0.52 0.0 0 0.00 0.00 0.00 0.000
11/17/2017 12:56:06a 229 0 0 25 53 78.9 62.6 29.98 0.52 0.0 0 0.00 0.00 0.00 0.000
11/17/2017 12:57:09a 229 0 0 25 53 78.9 62.6 29.98 0.52 0.0 0 0.00 0.00 0.00 0.000
11/17/2017 12:58:10a 229 0 0 25 53 78.9 62.5 29.98 0.52 0.0 0 0.00 0.00 0.00 0.000
11/17/2017 12:59:13a 229 0 0 25 53 78.9 62.5 29.98 0.52 0.0 0 0.00 0.00 0.00 0.000
11/17/2017 1:00:13a 229 0 0 25 53 78.8 62.5 29.98 0.52 0.0 0 0.00 0.00 0.00 0.000
11/17/2017 1:01:14a 229 0 0 25 53 78.8 62.5 29.98 0.52 0.0 0 0.00 0.00 0.00 0.000
11/17/2017 1:02:14a 229 0 0 25 53 78.8 62.5 29.98 0.52 0.0 0 0.00 0.00 0.00 0.000
11/17/2017 1:03:13a 229 0 0 25 53 78.8 62.5 29.98 0.52 0.0 0 0.00 0.00 0.00 0.000
11/17/2017 1:04:19a 229 0 0 25 53 78.8 62.5 29.98 0.52 0.0 0 0.00 0.00 0.00 0.000
11/17/2017 1:05:19a 229 0 0 25 53 78.8 62.6 29.98 0.52 0.0 0 0.00 0.00 0.00 0.000
11/17/2017 1:06:20a 229 0 0 25 53 78.8 62.6 29.98 0.52 0.0 0 0.00 0.00 0.00 0.000
11/17/2017 1:07:23a 229 0 0 25 53 78.8 62.6 29.98 0.52 0.0 0 0.00 0.00 0.00 0.000
11/17/2017 1:08:27a 229 2 2 25 53 78.8 62.5 29.98 0.52 0.0 0 0.00 0.00 0.00 0.000
11/17/2017 1:09:30a 229 2 2 25 53 78.8 62.5 29.98 0.52 0.0 0 0.00 0.00 0.00 0.000
11/17/2017 1:10:33a 229 2 2 25 53 78.8 62.4 29.98 0.52 0.0 0 0.00 0.00 0.00 0.000
11/17/2017 1:11:39a 229 2 2 25 53 78.8 62.4 29.98 0.52 0.0 0 0.00 0.00 0.00 0.000
11/17/2017 1:12:39a 229 3 3 25 53 78.8 62.3 29.98 0.52 0.0 0 0.00 0.00 0.00 0.000
11/17/2017 1:13:43a 229 2 3 25 53 78.8 62.2 29.98 0.52 0.0 0 0.00 0.00 0.00 0.000
11/17/2017 1:15:16a 229 1 3 25 53 78.8 62.1 29.99 0.52 0.0 0 0.00 0.00 0.00 0.000
11/17/2017 1:16:17a 229 1 3 25 53 78.8 62.1 29.99 0.52 0.0 0 0.00 0.00 0.00 0.000
11/17/2017 1:18:19a 229 1 2 25 53 78.8 61.9 29.99 0.52 0.0 0 0.00 0.00 0.00 0.000
11/17/2017 1:19:19a 229 1 2 25 53 78.8 61.9 29.99 0.52 0.0 0 0.00 0.00 0.00 0.000
11/17/2017 1:20:19a 229 0 2 25 53 78.8 61.9 29.99 0.52 0.0 0 0.00 0.00 0.00 0.000
11/17/2017 1:21:20a 229 0 2 25 53 78.8 61.9 29.99 0.52 0.0 0 0.00 0.00 0.00 0.000
11/17/2017 1:22:26a 229 0 2 25 53 78.8 61.9 29.99 0.52 0.0 0 0.00 0.00 0.00 0.000
11/17/2017 1:23:26a 229 1 2 25 54 78.6 61.9 29.99 0.52 0.0 0 0.00 0.00 0.00 0.000
11/17/2017 1:24:27a 229 0 2 25 54 78.6 61.9 29.99 0.52 0.0 0 0.00 0.00 0.00 0.000
11/17/2017 1:25:30a 229 0 2 25 54 78.6 61.9 29.99 0.52 0.0 0 0.00 0.00 0.00 0.000
11/17/2017 1:26:33a 229 0 2 25 54 78.6 61.9 29.99 0.52 0.0 0 0.00 0.00 0.00 0.000
11/17/2017 1:27:34a 229 2 2 25 54 78.6 61.8 29.98 0.52 0.0 0 0.00 0.00 0.00 0.000
11/17/2017 1:28:34a 229 2 2 25 54 78.6 61.8 29.99 0.52 0.0 0 0.00 0.00 0.00 0.000
11/17/2017 1:29:35a 229 3 3 25 54 78.6 61.8 29.98 0.52 0.0 0 0.00 0.00 0.00 0.000
11/17/2017 1:30:35a 229 2 3 25 54 78.6 61.8 29.98 0.52 0.0 0 0.00 0.00 0.00 0.000
11/17/2017 1:31:35a 229 2 3 25 54 78.6 61.8 29.98 0.52 0.0 0 0.00 0.00 0.00 0.000
11/17/2017 1:32:39a 229 3 3 25 54 78.6 61.7 29.99 0.52 0.0 0 0.00 0.00 0.00 0.000
11/17/2017 1:33:39a 229 2 3 25 54 78.6 61.7 29.99 0.52 0.0 0 0.00 0.00 0.00 0.000
11/17/2017 1:34:39a 229 3 3 25 54 78.6 61.7 29.99 0.52 0.0 0 0.00 0.00 0.00 0.000
11/17/2017 1:35:40a 229 2 3 25 54 78.6 61.7 29.99 0.52 0.0 0 0.00 0.00 0.00 0.000
11/17/2017 1:36:40a 229 2 3 25 54 78.6 61.7 29.99 0.52 0.0 0 0.00 0.00 0.00 0.000
11/17/2017 1:37:40a 229 1 3 25 54 78.6 61.8 29.99 0.52 0.0 0 0.00 0.00 0.00 0.000
11/17/2017 1:38:41a 229 2 3 25 54 78.6 61.9 29.99 0.52 0.0 0 0.00 0.00 0.00 0.000
11/17/2017 1:39:41a 229 1 3 25 54 78.6 61.9 29.99 0.52 0.0 0 0.00 0.00 0.00 0.000
11/17/2017 1:40:41a 229 1 3 25 54 78.6 61.9 29.99 0.52 0.0 0 0.00 0.00 0.00 0.000
11/17/2017 1:41:42a 229 1 3 25 54 78.6 61.9 29.99 0.52 0.0 0 0.00 0.00 0.00 0.000
11/17/2017 1:43:42a 229 1 3 25 54 78.6 62.0 29.99 0.52 0.0 0 0.00 0.00 0.00 0.000
11/17/2017 1:44:42a 229 2 3 25 54 78.6 62.0 29.99 0.52 0.0 0 0.00 0.00 0.00 0.000
11/17/2017 1:45:43a 229 1 3 25 54 78.6 62.1 29.99 0.52 0.0 0 0.00 0.00 0.00 0.000
11/17/2017 1:46:43a 229 1 3 25 54 78.6 62.1 29.99 0.52 0.0 0 0.00 0.00 0.00 0.000
11/17/2017 1:47:46a 229 1 2 25 55 78.4 62.1 29.99 0.52 0.0 0 0.00 0.00 0.00 0.000
11/17/2017 1:48:46a 229 2 2 25 55 78.4 62.1 29.99 0.52 0.0 0 0.00 0.00 0.00 0.000
11/17/2017 1:49:50a 229 2 3 25 55 78.4 62.2 29.99 0.52 0.0 0 0.00 0.00 0.00 0.000
11/17/2017 1:50:53a 229 2 3 25 55 78.4 62.2 29.99 0.52 0.0 0 0.00 0.00 0.00 0.000
11/17/2017 1:51:53a 229 2 3 25 55 78.4 62.2 29.99 0.52 0.0 0 0.00 0.00 0.00 0.000
11/17/2017 1:52:54a 229 2 3 25 55 78.4 62.3 29.99 0.52 0.0 0 0.00 0.00 0.00 0.000
11/17/2017 1:53:54a 229 3 3 25 55 78.4 62.3 29.99 0.52 0.0 0 0.00 0.00 0.00 0.000
11/17/2017 1:54:54a 229 2 3 25 55 78.4 62.3 29.99 0.52 0.0 0 0.00 0.00 0.00 0.000
11/17/2017 1:55:57a 229 2 3 25 55 78.4 62.3 29.99 0.52 0.0 0 0.00 0.00 0.00 0.000
11/17/2017 1:56:58a 229 2 3 25 55 78.4 62.3 29.99 0.52 0.0 0 0.00 0.00 0.00 0.000
11/17/2017 1:57:58a 229 2 3 25 55 78.4 62.4 29.98 0.52 0.0 0 0.00 0.00 0.00 0.000
11/17/2017 1:59:01a 229 3 3 25 55 78.4 62.4 29.99 0.52 0.0 0 0.00 0.00 0.00 0.000
11/17/2017 2:00:02a 229 1 3 25 55 78.4 62.4 29.98 0.52 0.0 0 0.00 0.00 0.00 0.000
11/17/2017 2:01:02a 229 1 3 25 55 78.4 62.4 29.98 0.52 0.0 0 0.00 0.00 0.00 0.000
11/17/2017 2:02:03a 229 1 3 25 55 78.4 62.4 29.98 0.52 0.0 0 0.00 0.00 0.00 0.000
11/17/2017 2:03:03a 229 2 2 25 55 78.4 62.3 29.99 0.52 0.0 0 0.00 0.00 0.00 0.000
11/17/2017 2:04:03a 229 2 3 25 55 78.4 62.3 29.99 0.52 0.0 0 0.00 0.00 0.00 0.000
11/17/2017 2:05:04a 229 2 4 25 55 78.4 62.3 29.99 0.52 0.0 0 0.00 0.00 0.00 0.000
11/17/2017 2:06:04a 229 2 4 25 55 78.4 62.3 29.99 0.52 0.0 0 0.00 0.00 0.00 0.000
11/17/2017 2:07:04a 229 2 4 25 55 78.4 62.3 29.99 0.52 0.0 0 0.00 0.00 0.00 0.000
11/17/2017 2:08:05a 234 4 4 25 55 78.4 62.3 30.00 0.52 0.0 0 0.00 0.00 0.00 0.000
11/17/2017 2:09:05a 234 4 4 25 55 78.4 62.2 30.00 0.52 0.0 0 0.00 0.00 0.00 0.000
11/17/2017 2:10:08a 234 3 4 25 55 78.4 62.2 30.00 0.52 0.0 0 0.00 0.00 0.00 0.000
11/17/2017 2:11:09a 234 3 4 25 55 78.4 62.2 30.00 0.52 0.0 0 0.00 0.00 0.00 0.000
11/17/2017 2:12:09a 234 3 4 25 55 78.4 62.2 30.00 0.52 0.0 0 0.00 0.00 0.00 0.000
11/17/2017 2:13:09a 236 3 4 25 55 78.2 62.1 30.00 0.52 0.0 0 0.00 0.00 0.00 0.000
11/17/2017 2:14:10a 235 2 4 25 55 78.2 62.0 30.00 0.52 0.0 0 0.00 0.00 0.00 0.000
11/17/2017 2:15:10a 235 2 4 25 55 78.2 62.0 30.00 0.52 0.0 0 0.00 0.00 0.00 0.000
11/17/2017 2:16:13a 235 2 4 25 55 78.2 62.0 30.00 0.52 0.0 0 0.00 0.00 0.00 0.000
11/17/2017 2:17:16a 235 2 4 25 55 78.2 62.0 30.00 0.52 0.0 0 0.00 0.00 0.00 0.000
11/17/2017 2:18:20a 235 1 2 25 55 78.2 61.9 30.00 0.52 0.0 0 0.00 0.00 0.00 0.000
11/17/2017 2:19:20a 236 0 2 25 55 78.2 61.8 30.00 0.52 0.0 0 0.00 0.00 0.00 0.000
11/17/2017 2:20:20a 235 0 2 25 55 78.2 61.8 30.00 0.52 0.0 0 0.00 0.00 0.00 0.000
11/17/2017 2:21:21a 235 0 2 25 55 78.2 61.8 30.00 0.52 0.0 0 0.00 0.00 0.00 0.000
11/17/2017 2:22:21a 235 0 2 25 55 78.2 61.8 30.00 0.52 0.0 0 0.00 0.00 0.00 0.000
11/17/2017 2:23:27a 235 0 2 25 55 78.2 61.8 30.00 0.52 0.0 0 0.00 0.00 0.00 0.000
11/17/2017 2:24:28a 235 0 2 25 56 78.2 61.8 30.00 0.52 0.0 0 0.00 0.00 0.00 0.000
11/17/2017 2:25:28a 236 0 2 25 56 78.2 61.8 30.00 0.52 0.0 0 0.00 0.00 0.00 0.000
11/17/2017 2:26:28a 236 0 2 25 56 78.2 61.8 30.00 0.52 0.0 0 0.00 0.00 0.00 0.000
11/17/2017 2:27:29a 236 0 2 25 56 78.2 61.8 30.00 0.52 0.0 0 0.00 0.00 0.00 0.000
11/17/2017 2:28:32a 235 0 2 25 56 78.2 61.9 30.00 0.52 0.0 0 0.00 0.00 0.00 0.000
11/17/2017 2:29:33a 235 0 2 25 56 78.2 61.9 30.01 0.52 0.0 0 0.00 0.00 0.00 0.000
11/17/2017 2:30:33a 236 0 2 25 56 78.2 61.9 30.01 0.52 0.0 0 0.00 0.00 0.00 0.000
11/17/2017 2:31:39a 236 0 2 25 56 78.2 61.9 30.01 0.52 0.0 0 0.00 0.00 0.00 0.000
11/17/2017 2:32:40a 235 0 0 25 56 78.2 62.0 30.01 0.52 0.0 0 0.00 0.00 0.00 0.000
11/17/2017 2:33:40a 235 0 0 25 56 78.2 62.1 30.01 0.52 0.0 0 0.00 0.00 0.00 0.000
11/17/2017 2:34:43a 236 0 0 25 56 78.2 62.1 30.01 0.52 0.0 0 0.00 0.00 0.00 0.000
11/17/2017 2:35:44a 235 0 0 25 56 78.2 62.1 30.01 0.52 0.0 0 0.00 0.00 0.00 0.000
11/17/2017 2:36:44a 235 0 0 25 56 78.2 62.1 30.01 0.52 0.0 0 0.00 0.00 0.00 0.000
11/17/2017 2:37:44a 235 0 0 25 56 78.2 62.2 30.00 0.52 0.0 0 0.00 0.00 0.00 0.000
11/17/2017 2:38:45a 235 0 0 25 56 78.2 62.2 30.00 0.52 0.0 0 0.00 0.00 0.00 0.000
11/17/2017 2:39:51a 235 0 0 25 56 78.1 62.3 30.00 0.52 0.0 0 0.00 0.00 0.00 0.000
11/17/2017 2:40:54a 235 0 0 25 56 78.1 62.3 30.00 0.52 0.0 0 0.00 0.00 0.00 0.000
11/17/2017 2:41:55a 235 0 0 25 56 78.1 62.3 30.00 0.52 0.0 0 0.00 0.00 0.00 0.000
11/17/2017 2:42:55a 235 0 0 25 56 78.1 62.3 30.00 0.52 0.0 0 0.00 0.00 0.00 0.000
11/17/2017 2:43:55a 236 0 0 25 56 78.1 62.3 30.00 0.52 0.0 0 0.00 0.00 0.00 0.000
11/17/2017 2:46:02a 235 0 0 25 56 78.1 62.4 30.00 0.52 0.0 0 0.00 0.00 0.00 0.000
11/17/2017 2:47:02a 235 0 0 25 56 78.1 62.4 30.00 0.52 0.0 0 0.00 0.00 0.00 0.000
11/17/2017 2:48:05a 236 0 0 25 55 78.1 62.4 30.01 0.52 0.0 0 0.00 0.00 0.00 0.000
11/17/2017 2:49:06a 235 0 0 25 55 78.1 62.4 30.01 0.52 0.0 0 0.00 0.00 0.00 0.000
11/17/2017 2:50:06a 235 0 0 25 55 78.1 62.5 30.00 0.52 0.0 0 0.00 0.00 0.00 0.000
11/17/2017 2:51:09a 235 0 0 25 55 78.1 62.5 30.00 0.52 0.0 0 0.00 0.00 0.00 0.000
11/17/2017 2:52:12a 235 0 0 25 55 78.1 62.5 30.00 0.52 0.0 0 0.00 0.00 0.00 0.000
11/17/2017 2:53:16a 235 0 0 25 55 78.1 62.6 30.01 0.52 0.0 0 0.00 0.00 0.00 0.000
11/17/2017 2:54:16a 235 0 0 25 55 78.1 62.6 30.00 0.52 0.0 0 0.00 0.00 0.00 0.000
11/17/2017 2:55:16a 235 0 0 25 55 78.1 62.7 30.00 0.52 0.0 0 0.00 0.00 0.00 0.000
11/17/2017 2:56:16a 235 0 0 25 55 78.1 62.7 30.00 0.52 0.0 0 0.00 0.00 0.00 0.000
11/17/2017 2:57:20a 235 0 0 25 55 78.1 62.7 30.00 0.52 0.0 0 0.00 0.00 0.00 0.000
11/17/2017 2:58:20a 236 0 0 25 55 78.1 62.7 30.00 0.52 0.0 0 0.00 0.00 0.00 0.000
11/17/2017 2:59:20a 236 0 0 25 55 78.1 62.8 30.00 0.52 0.0 0 0.00 0.00 0.00 0.000
11/17/2017 3:00:21a 235 0 0 25 55 78.1 62.8 30.00 0.52 0.0 0 0.00 0.00 0.00 0.000
11/17/2017 3:01:27a 235 0 0 25 55 78.1 62.8 30.00 0.52 0.0 0 0.00 0.00 0.00 0.000
11/17/2017 3:02:27a 235 0 0 25 55 78.1 62.8 30.00 0.52 0.0 0 0.00 0.00 0.00 0.000
11/17/2017 3:03:27a 235 0 0 25 55 78.1 62.8 30.00 0.52 0.0 0 0.00 0.00 0.00 0.000
11/17/2017 3:04:43a 235 0 0 25 55 78.1 62.8 30.00 0.52 0.0 0 0.00 0.00 0.00 0.000
11/17/2017 3:05:46a 235 0 0 25 55 78.1 62.8 30.00 0.52 0.0 0 0.00 0.00 0.00 0.000
11/17/2017 3:06:46a 235 0 0 25 55 78.1 62.8 30.00 0.52 0.0 0 0.00 0.00 0.00 0.000
11/17/2017 3:07:50a 235 0 0 25 55 78.1 62.8 30.00 0.52 0.0 0 0.00 0.00 0.00 0.000
11/17/2017 3:08:53a 235 0 0 25 56 78.1 62.9 30.00 0.52 0.0 0 0.00 0.00 0.00 0.000
11/17/2017 3:09:53a 235 0 0 25 56 78.1 62.9 30.00 0.52 0.0 0 0.00 0.00 0.00 0.000
11/17/2017 3:10:53a 235 0 0 25 56 78.1 62.9 30.00 0.52 0.0 0 0.00 0.00 0.00 0.000
11/17/2017 3:11:54a 235 0 0 25 56 78.1 62.9 30.00 0.52 0.0 0 0.00 0.00 0.00 0.000
11/17/2017 3:12:54a 236 0 0 25 56 77.9 63.0 30.00 0.52 0.0 0 0.00 0.00 0.00 0.000
11/17/2017 3:13:54a 235 0 0 25 57 77.9 63.0 30.00 0.52 0.0 0 0.00 0.00 0.00 0.000
11/17/2017 3:14:55a 236 3 3 25 58 77.9 63.0 30.00 0.52 0.0 0 0.00 0.00 0.00 0.000
11/17/2017 3:15:55a 235 3 3 25 58 77.9 63.0 30.00 0.52 0.0 0 0.00 0.00 0.00 0.000
11/17/2017 3:16:55a 235 3 3 25 58 77.9 63.0 30.00 0.52 0.0 0 0.00 0.00 0.00 0.000
11/17/2017 3:17:56a 235 0 0 25 58 77.9 63.1 30.00 0.52 0.0 0 0.00 0.00 0.00 0.000
11/17/2017 3:18:59a 236 0 0 25 58 77.9 63.0 30.00 0.52 0.0 0 0.00 0.00 0.00 0.000
11/17/2017 3:19:59a 235 0 0 25 58 77.9 63.0 30.00 0.52 0.0 0 0.00 0.00 0.00 0.000
11/17/2017 3:20:59a 235 0 0 25 58 77.9 63.0 30.00 0.52 0.0 0 0.00 0.00 0.00 0.000
11/17/2017 3:22:00a 235 0 0 25 58 77.9 63.0 30.00 0.52 0.0 0 0.00 0.00 0.00 0.000
11/17/2017 3:23:00a 235 0 0 25 58 77.9 63.0 30.01 0.52 0.0 0 0.00 0.00 0.00 0.000
11/17/2017 3:24:00a 236 0 0 25 58 77.9 63.0 30.01 0.52 0.0 0 0.00 0.00 0.00 0.000
11/17/2017 3:25:00a 236 0 0 25 58 77.9 62.9 30.01 0.52 0.0 0 0.00 0.00 0.00 0.000
11/17/2017 3:26:01a 236 0 0 25 58 77.9 62.9 30.01 0.52 0.0 0 0.00 0.00 0.00 0.000
11/17/2017 3:27:01a 236 0 0 25 58 77.9 62.9 30.01 0.52 0.0 0 0.00 0.00 0.00 0.000
11/17/2017 3:28:02a 236 0 0 25 58 77.9 62.9 30.01 0.52 0.0 0 0.00 0.00 0.00 0.000
11/17/2017 3:29:02a 235 0 0 25 58 77.9 62.9 30.01 0.52 0.0 0 0.00 0.00 0.00 0.000
11/17/2017 3:30:02a 236 0 0 25 58 77.9 62.9 30.01 0.52 0.0 0 0.00 0.00 0.00 0.000
11/17/2017 3:31:03a 236 0 0 25 58 77.9 62.9 30.01 0.52 0.0 0 0.00 0.00 0.00 0.000
11/17/2017 3:32:03a 236 0 0 25 58 77.9 62.9 30.01 0.52 0.0 0 0.00 0.00 0.00 0.000
11/17/2017 3:33:06a 235 0 0 25 58 77.9 62.8 30.01 0.52 0.0 0 0.00 0.00 0.00 0.000
11/17/2017 3:34:10a 235 0 0 25 58 77.9 62.8 30.01 0.52 0.0 0 0.00 0.00 0.00 0.000
11/17/2017 3:35:10a 236 0 0 25 58 77.9 62.8 30.01 0.52 0.0 0 0.00 0.00 0.00 0.000
11/17/2017 3:36:16a 236 0 0 25 58 77.9 62.8 30.01 0.52 0.0 0 0.00 0.00 0.00 0.000
11/17/2017 3:37:17a 236 0 0 25 58 77.9 62.8 30.01 0.52 0.0 0 0.00 0.00 0.00 0.000
11/17/2017 3:38:17a 236 0 0 25 58 77.9 62.7 30.01 0.52 0.0 0 0.00 0.00 0.00 0.000
11/17/2017 3:39:17a 236 0 0 25 58 77.9 62.7 30.01 0.52 0.0 0 0.00 0.00 0.00 0.000
11/17/2017 3:40:20a 236 0 0 25 58 77.9 62.7 30.01 0.52 0.0 0 0.00 0.00 0.00 0.000
11/17/2017 3:41:21a 236 0 0 25 58 77.9 62.7 30.01 0.52 0.0 0 0.00 0.00 0.00 0.000
11/17/2017 3:42:21a 236 0 0 25 58 77.9 62.7 30.01 0.52 0.0 0 0.00 0.00 0.00 0.000
11/17/2017 3:43:21a 236 1 1 25 57 77.9 62.6 30.01 0.52 0.0 0 0.00 0.00 0.00 0.000
11/17/2017 3:44:22a 235 0 1 25 57 77.9 62.5 30.01 0.52 0.0 0 0.00 0.00 0.00 0.000
11/17/2017 3:45:22a 236 1 1 25 57 77.9 62.5 30.01 0.52 0.0 0 0.00 0.00 0.00 0.000
11/17/2017 3:46:22a 236 1 1 25 57 77.9 62.5 30.01 0.52 0.0 0 0.00 0.00 0.00 0.000
11/17/2017 3:47:22a 236 1 1 25 57 77.9 62.5 30.01 0.52 0.0 0 0.00 0.00 0.00 0.000
11/17/2017 3:48:26a 236 0 1 25 57 77.7 62.4 30.01 0.52 0.0 0 0.00 0.00 0.00 0.000
11/17/2017 3:49:32a 236 0 1 25 57 77.7 62.4 30.01 0.52 0.0 0 0.00 0.00 0.00 0.000
11/17/2017 3:50:35a 235 0 1 25 57 77.7 62.4 30.01 0.52 0.0 0 0.00 0.00 0.00 0.000
11/17/2017 3:51:36a 235 0 1 25 57 77.7 62.4 30.01 0.52 0.0 0 0.00 0.00 0.00 0.000
11/17/2017 3:52:39a 236 0 1 25 57 77.7 62.3 30.01 0.52 0.0 0 0.00 0.00 0.00 0.000
11/17/2017 3:53:42a 236 0 1 25 57 77.7 62.3 30.01 0.52 0.0 0 0.00 0.00 0.00 0.000
11/17/2017 3:54:42a 235 0 1 25 57 77.7 62.3 30.01 0.52 0.0 0 0.00 0.00 0.00 0.000
11/17/2017 3:55:43a 236 0 1 25 57 77.7 62.3 30.01 0.52 0.0 0 0.00 0.00 0.00 0.000
11/17/2017 3:57:50a 236 0 1 25 57 77.7 62.2 30.00 0.52 0.0 0 0.00 0.00 0.00 0.000
11/17/2017 3:59:50a 236 0 1 25 57 77.7 62.2 30.00 0.52 0.0 0 0.00 0.00 0.00 0.000
11/17/2017 4:00:51a 235 0 1 25 57 77.7 62.2 30.00 0.52 0.0 0 0.00 0.00 0.00 0.000
11/17/2017 4:01:51a 235 0 1 25 57 77.7 62.2 30.00 0.52 0.0 0 0.00 0.00 0.00 0.000
11/17/2017 4:02:51a 236 0 0 25 57 77.7 62.1 30.01 0.52 0.0 0 0.00 0.00 0.00 0.000
11/17/2017 4:03:52a 236 0 0 25 57 77.7 62.1 30.01 0.52 0.0 0 0.00 0.00 0.00 0.000
11/17/2017 4:04:52a 236 0 0 25 57 77.7 62.1 30.01 0.52 0.0 0 0.00 0.00 0.00 0.000
11/17/2017 4:06:56a 235 0 0 25 57 77.7 62.1 30.01 0.52 0.0 0 0.00 0.00 0.00 0.000
11/17/2017 4:07:56a 235 0 0 25 57 77.7 62.0 30.01 0.52 0.0 0 0.00 0.00 0.00 0.000
11/17/2017 4:09:57a 236 0 0 25 57 77.7 62.0 30.00 0.52 0.0 0 0.00 0.00 0.00 0.000
11/17/2017 4:10:57a 236 0 0 25 57 77.7 62.0 30.00 0.52 0.0 0 0.00 0.00 0.00 0.000
11/17/2017 4:12:01a 236 0 0 25 57 77.7 62.0 30.00 0.52 0.0 0 0.00 0.00 0.00 0.000
11/17/2017 4:13:02a 235 0 0 25 57 77.7 61.9 30.00 0.52 0.0 0 0.00 0.00 0.00 0.000
11/17/2017 4:14:02a 235 0 0 25 57 77.7 61.9 30.00 0.52 0.0 0 0.00 0.00 0.00 0.000
11/17/2017 4:15:02a 235 0 0 25 57 77.7 61.9 30.00 0.52 0.0 0 0.00 0.00 0.00 0.000
11/17/2017 4:16:03a 235 0 0 25 57 77.7 61.9 30.00 0.52 0.0 0 0.00 0.00 0.00 0.000
11/17/2017 4:17:12a 235 0 0 25 57 77.7 61.9 30.00 0.52 0.0 0 0.00 0.00 0.00 0.000
11/17/2017 4:18:12a 235 0 0 25 57 77.7 61.9 30.00 0.52 0.0 0 0.00 0.00 0.00 0.000
11/17/2017 4:19:12a 235 0 0 25 57 77.7 61.8 30.00 0.52 0.0 0 0.00 0.00 0.00 0.000
11/17/2017 4:20:13a 236 0 0 25 57 77.7 61.8 30.00 0.52 0.0 0 0.00 0.00 0.00 0.000
11/17/2017 4:21:13a 236 0 0 25 57 77.7 61.8 30.00 0.52 0.0 0 0.00 0.00 0.00 0.000
11/17/2017 4:22:16a 236 0 0 25 57 77.7 61.8 30.00 0.52 0.0 0 0.00 0.00 0.00 0.000
11/17/2017 4:23:16a 236 0 0 25 57 77.7 61.8 30.00 0.52 0.0 0 0.00 0.00 0.00 0.000
11/17/2017 4:24:17a 235 0 0 25 57 77.7 61.8 30.00 0.52 0.0 0 0.00 0.00 0.00 0.000
11/17/2017 4:25:17a 235 0 0 25 57 77.5 61.8 30.00 0.52 0.0 0 0.00 0.00 0.00 0.000
11/17/2017 4:26:17a 235 0 0 25 57 77.5 61.8 30.00 0.52 0.0 0 0.00 0.00 0.00 0.000
11/17/2017 4:27:18a 235 0 0 25 57 77.5 61.8 30.00 0.52 0.0 0 0.00 0.00 0.00 0.000
11/17/2017 4:29:18a 235 0 0 25 57 77.5 61.8 30.01 0.52 0.0 0 0.00 0.00 0.00 0.000
11/17/2017 4:30:22a 235 0 0 25 57 77.5 61.8 30.01 0.52 0.0 0 0.00 0.00 0.00 0.000
11/17/2017 4:31:22a 235 0 0 25 57 77.5 61.8 30.01 0.52 0.0 0 0.00 0.00 0.00 0.000
11/17/2017 4:32:22a 235 0 0 25 57 77.5 61.8 30.01 0.52 0.0 0 0.00 0.00 0.00 0.000
11/17/2017 4:33:26a 157 0 0 25 58 77.5 61.8 30.01 0.52 0.0 0 0.00 0.00 0.00 0.000
11/17/2017 4:35:18a 157 0 0 25 58 77.5 61.8 30.01 0.52 0.0 0 0.00 0.00 0.00 0.000
11/17/2017 4:36:18a 157 0 0 25 58 77.5 61.8 30.01 0.52 0.0 0 0.00 0.00 0.00 0.000
11/17/2017 4:37:18a 157 0 0 25 58 77.5 61.8 30.01 0.52 0.0 0 0.00 0.00 0.00 0.000
11/17/2017 4:38:22a 335 0 0 25 58 77.5 61.9 30.02 0.52 0.0 0 0.00 0.00 0.00 0.000
11/17/2017 4:39:22a 330 0 0 25 58 77.5 61.9 30.02 0.52 0.0 0 0.00 0.00 0.00 0.000
11/17/2017 4:40:22a 335 0 0 25 58 77.5 61.9 30.02 0.52 0.0 0 0.00 0.00 0.00 0.000
11/17/2017 4:41:23a 335 0 0 25 58 77.5 61.9 30.02 0.52 0.0 0 0.00 0.00 0.00 0.000
11/17/2017 4:42:26a 335 0 0 25 58 77.5 61.9 30.02 0.52 0.0 0 0.00 0.00 0.00 0.000
11/17/2017 4:43:32a 330 0 0 25 58 77.5 61.9 30.02 0.52 0.0 0 0.00 0.00 0.00 0.000
11/17/2017 4:44:33a 335 0 0 25 58 77.5 62.0 30.02 0.52 0.0 0 0.00 0.00 0.00 0.000
11/17/2017 4:45:33a 330 2 2 25 58 77.5 62.0 30.02 0.52 0.0 0 0.00 0.00 0.00 0.000
11/17/2017 4:46:36a 330 2 2 25 58 77.5 62.0 30.02 0.52 0.0 0 0.00 0.00 0.00 0.000
11/17/2017 4:47:40a 330 2 2 25 58 77.5 62.0 30.02 0.52 0.0 0 0.00 0.00 0.00 0.000
11/17/2017 4:48:40a 335 1 2 25 58 77.5 62.0 30.02 0.52 0.0 0 0.00 0.00 0.00 0.000
11/17/2017 4:49:40a 330 1 2 25 58 77.5 62.1 30.02 0.52 0.0 0 0.00 0.00 0.00 0.000
11/17/2017 4:50:41a 335 0 2 25 58 77.5 62.0 30.02 0.52 0.0 0 0.00 0.00 0.00 0.000
11/17/2017 4:51:44a 335 0 2 25 58 77.5 62.0 30.02 0.52 0.0 0 0.00 0.00 0.00 0.000
11/17/2017 4:52:54a 330 0 2 25 58 77.5 62.1 30.03 0.52 0.0 0 0.00 0.00 0.00 0.000
11/17/2017 4:54:36a 335 2 2 25 58 77.5 62.1 30.03 0.52 0.0 0 0.00 0.00 0.00 0.000
11/17/2017 4:55:36a 335 1 2 25 58 77.5 62.1 30.03 0.52 0.0 0 0.00 0.00 0.00 0.000
11/17/2017 4:56:36a 335 1 2 25 58 77.5 62.1 30.03 0.52 0.0 0 0.00 0.00 0.00 0.000
11/17/2017 4:57:40a 335 1 2 25 58 77.5 62.1 30.03 0.52 0.0 0 0.00 0.00 0.00 0.000
11/17/2017 4:58:40a 335 2 3 25 58 77.5 62.1 30.03 0.52 0.0 0 0.00 0.00 0.00 0.000
11/17/2017 4:59:40a 335 0 3 25 58 77.5 62.1 30.03 0.52 0.0 0 0.00 0.00 0.00 0.000
11/17/2017 5:00:41a 330 0 3 25 58 77.5 62.1 30.03 0.52 0.0 0 0.00 0.00 0.00 0.000
11/17/2017 5:01:41a 330 0 3 25 58 77.5 62.1 30.03 0.52 0.0 0 0.00 0.00 0.00 0.000
11/17/2017 5:02:42a 330 0 3 25 58 77.5 62.1 30.03 0.52 0.0 0 0.00 0.00 0.00 0.000
11/17/2017 5:03:42a 335 1 3 25 58 77.5 62.1 30.03 0.52 0.0 0 0.00 0.00 0.00 0.000
11/17/2017 5:04:42a 330 2 3 25 58 77.5 62.1 30.03 0.52 0.0 0 0.00 0.00 0.00 0.000
11/17/2017 5:05:42a 335 0 3 25 58 77.5 62.1 30.03 0.52 0.0 0 0.00 0.00 0.00 0.000
11/17/2017 5:06:43a 335 0 3 25 58 77.5 62.1 30.03 0.52 0.0 0 0.00 0.00 0.00 0.000
11/17/2017 5:07:43a 330 2 3 25 57 77.3 62.1 30.03 0.52 0.0 0 0.00 0.00 0.00 0.000
11/17/2017 5:08:43a 335 1 3 25 57 77.3 62.1 30.03 0.52 0.0 0 0.00 0.00 0.00 0.000
11/17/2017 5:09:44a 335 1 3 25 57 77.3 62.1 30.03 0.52 0.0 0 0.00 0.00 0.00 0.000
11/17/2017 5:10:47a 335 0 3 25 57 77.3 62.1 30.03 0.52 0.0 0 0.00 0.00 0.00 0.000
11/17/2017 5:11:47a 335 0 3 25 57 77.3 62.1 30.03 0.52 0.0 0 0.00 0.00 0.00 0.000
11/17/2017 5:12:48a 335 0 3 25 57 77.3 62.1 30.03 0.52 0.0 0 0.00 0.00 0.00 0.000
11/17/2017 5:13:48a 335 0 3 25 57 77.3 62.1 30.03 0.52 0.0 0 0.00 0.00 0.00 0.000
11/17/2017 5:14:48a 335 0 3 25 57 77.3 62.1 30.03 0.52 0.0 0 0.00 0.00 0.00 0.000
11/17/2017 5:15:49a 335 0 3 25 57 77.3 62.1 30.03 0.52 0.0 0 0.00 0.00 0.00 0.000
11/17/2017 5:16:49a 335 0 3 25 57 77.3 62.1 30.03 0.52 0.0 0 0.00 0.00 0.00 0.000
11/17/2017 5:18:50a 330 0 0 25 57 77.3 62.1 30.03 0.52 0.0 0 0.00 0.00 0.00 0.000
11/17/2017 5:19:50a 335 0 0 25 57 77.3 62.1 30.03 0.52 0.0 0 0.00 0.00 0.00 0.000
11/17/2017 5:20:50a 330 0 0 25 57 77.3 62.1 30.03 0.52 0.0 0 0.00 0.00 0.00 0.000
11/17/2017 5:21:51a 330 0 0 25 57 77.3 62.1 30.03 0.52 0.0 0 0.00 0.00 0.00 0.000
11/17/2017 5:25:55a 335 0 1 25 57 77.3 62.2 30.03 0.52 0.0 0 0.00 0.00 0.00 0.000
11/17/2017 5:26:55a 335 0 1 25 57 77.3 62.2 30.03 0.52 0.0 0 0.00 0.00 0.00 0.000
11/17/2017 5:27:59a 335 0 1 25 57 77.3 62.2 30.03 0.52 0.0 0 0.00 0.00 0.00 0.000
11/17/2017 5:28:59a 335 0 1 25 57 77.3 62.2 30.03 0.52 0.0 0 0.00 0.00 0.00 0.000
11/17/2017 5:30:00a 335 0 1 25 57 77.3 62.2 30.03 0.52 0.0 0 0.00 0.00 0.00 0.000
11/17/2017 5:31:03a 335 0 1 25 57 77.3 62.2 30.03 0.52 0.0 0 0.00 0.00 0.00 0.000
11/17/2017 5:32:03a 335 0 1 25 57 77.3 62.2 30.03 0.52 0.0 0 0.00 0.00 0.00 0.000
11/17/2017 5:33:07a 335 0 0 25 57 77.3 62.2 30.03 0.52 0.0 0 0.00 0.00 0.00 0.000
11/17/2017 5:34:08a 335 0 0 25 57 77.3 62.2 30.03 0.52 0.0 0 0.00 0.00 0.00 0.000
11/17/2017 5:35:08a 335 0 0 25 57 77.3 62.3 30.03 0.52 0.0 0 0.00 0.00 0.00 0.000
11/17/2017 5:36:09a 335 0 0 25 57 77.3 62.3 30.03 0.52 0.0 0 0.00 0.00 0.00 0.000
11/17/2017 5:37:09a 335 0 0 25 57 77.3 62.3 30.03 0.52 0.0 0 0.00 0.00 0.00 0.000
11/17/2017 5:39:13a 335 0 0 25 57 77.3 62.3 30.03 0.52 0.0 0 0.00 0.00 0.00 0.000
11/17/2017 5:40:16a 330 0 0 25 59 77.3 62.3 30.03 0.52 0.0 0 0.00 0.00 0.00 0.000
11/17/2017 5:41:16a 330 0 0 25 59 77.3 62.3 30.03 0.52 0.0 0 0.00 0.00 0.00 0.000
11/17/2017 5:42:16a 330 0 0 25 59 77.3 62.3 30.03 0.52 0.0 0 0.00 0.00 0.00 0.000
11/17/2017 5:43:20a 335 0 0 25 57 77.3 62.3 30.03 0.52 0.0 0 0.00 0.00 0.00 0.000
11/17/2017 5:44:20a 335 0 0 25 59 77.3 62.4 30.03 0.52 0.0 0 0.00 0.00 0.00 0.000
11/17/2017 5:45:20a 335 0 0 25 59 77.3 62.4 30.03 0.52 0.0 0 0.00 0.00 0.00 0.000
11/17/2017 5:46:24a 335 0 0 25 59 77.3 62.4 30.03 0.52 0.0 0 0.00 0.00 0.00 0.000
11/17/2017 5:47:30a 335 0 0 25 59 77.3 62.4 30.03 0.52 0.0 0 0.00 0.00 0.00 0.000
11/17/2017 5:48:33a 330 0 0 25 57 77.3 62.4 30.03 0.52 0.0 0 0.00 0.00 0.00 0.000
11/17/2017 5:49:33a 335 0 0 25 57 77.3 62.4 30.03 0.52 0.0 0 0.00 0.00 0.00 0.000
11/17/2017 5:50:35a 335 0 0 25 57 77.3 62.5 30.03 0.52 0.0 0 0.00 0.00 0.00 0.000
11/17/2017 5:51:39a 335 0 0 25 57 77.3 62.5 30.03 0.52 0.0 0 0.00 0.00 0.00 0.000
11/17/2017 5:52:39a 340 1 1 25 57 77.3 62.5 30.03 0.52 0.0 0 0.00 0.00 0.00 0.000
11/17/2017 5:53:45a 340 0 1 25 57 77.3 62.6 30.03 0.52 0.0 0 0.00 0.00 0.00 0.000
11/17/2017 5:54:45a 340 0 1 25 57 77.3 62.6 30.03 0.52 0.0 0 0.00 0.00 0.00 0.000
11/17/2017 5:55:44a 340 0 1 25 57 77.3 62.6 30.03 0.52 0.0 0 0.00 0.00 0.00 0.000
11/17/2017 5:56:44a 340 0 1 25 57 77.3 62.6 30.03 0.52 0.0 0 0.00 0.00 0.00 0.000
11/17/2017 5:57:45a 340 0 1 25 56 77.2 62.6 30.04 0.52 0.0 0 0.00 0.00 0.00 0.000
11/17/2017 5:58:45a 340 0 1 25 56 77.2 62.7 30.04 0.52 0.0 0 0.00 0.00 0.00 0.000
11/17/2017 5:59:45a 340 0 1 25 56 77.2 62.7 30.04 0.52 0.0 0 0.00 0.00 0.00 0.000
11/17/2017 6:00:46a 340 0 1 25 56 77.2 62.7 30.04 0.52 0.0 0 0.00 0.00 0.00 0.000
11/17/2017 6:01:49a 340 0 1 25 56 77.2 62.7 30.04 0.52 0.0 0 0.00 0.00 0.00 0.000
11/17/2017 6:02:49a 339 0 0 25 56 77.2 62.7 30.04 0.52 0.0 0 0.00 0.00 0.00 0.000
11/17/2017 6:03:53a 339 0 0 25 56 77.3 62.8 30.04 0.52 0.0 0 0.00 0.00 0.00 0.000
11/17/2017 6:04:53a 339 0 0 25 56 77.2 62.8 30.04 0.52 0.0 0 0.00 0.00 0.00 0.000
11/17/2017 6:06:59a 339 0 0 25 56 77.2 62.8 30.04 0.52 0.0 0 0.00 0.00 0.00 0.000
11/17/2017 6:08:03a 339 0 0 25 56 77.2 62.8 30.04 0.52 0.0 0 0.00 0.00 0.00 0.000
11/17/2017 6:09:03a 339 0 0 25 56 77.2 62.8 30.04 0.52 0.0 0 0.00 0.00 0.00 0.000
11/17/2017 6:10:03a 339 0 0 25 56 77.2 62.8 30.04 0.52 0.0 0 0.00 0.00 0.00 0.000
11/17/2017 6:11:04a 339 0 0 25 56 77.2 62.8 30.04 0.52 0.0 0 0.00 0.00 0.00 0.000
11/17/2017 6:12:07a 339 0 0 25 56 77.2 62.8 30.04 0.52 0.0 0 0.00 0.00 0.00 0.000
11/17/2017 6:13:09a 339 0 0 25 56 77.2 62.9 30.04 0.52 0.0 0 0.00 0.00 0.00 0.000
11/17/2017 6:15:10a 87 1 4 25 56 77.2 62.9 30.04 0.52 0.0 0 0.00 0.00 0.00 0.000
11/17/2017 6:16:10a 87 1 4 25 56 77.2 62.9 30.04 0.52 0.0 0 0.00 0.00 0.00 0.000
11/17/2017 6:17:11a 87 1 4 25 56 77.2 62.9 30.04 0.52 0.0 0 0.00 0.00 0.00 0.000
11/17/2017 6:18:11a 84 0 0 25 56 77.2 62.9 30.04 0.52 0.0 0 0.00 0.00 0.00 0.000
11/17/2017 6:19:11a 85 0 0 25 57 77.2 62.9 30.04 0.52 0.0 0 0.00 0.00 0.00 0.000
11/17/2017 6:20:11a 84 0 0 25 57 77.2 62.9 30.04 0.52 0.0 0 0.00 0.00 0.00 0.000
11/17/2017 6:21:12a 84 0 0 25 57 77.2 62.9 30.04 0.52 0.0 0 0.00 0.00 0.00 0.000
11/17/2017 6:22:12a 84 0 0 25 57 77.2 62.9 30.04 0.52 0.0 0 0.00 0.00 0.00 0.000
11/17/2017 6:23:12a 85 0 0 25 57 77.2 62.9 30.04 0.52 0.0 0 0.00 0.00 0.00 0.000
11/17/2017 6:24:12a 84 0 0 25 57 77.2 62.9 30.04 0.52 0.0 0 0.00 0.00 0.00 0.000
11/17/2017 6:25:16a 85 0 0 25 57 77.2 62.9 30.04 0.52 0.0 0 0.00 0.00 0.00 0.000
11/17/2017 6:26:16a 85 0 0 25 57 77.2 62.9 30.04 0.52 0.0 0 0.00 0.00 0.00 0.000
11/17/2017 6:27:19a 85 0 0 25 57 77.2 62.9 30.04 0.52 0.0 0 0.00 0.00 0.00 0.000
11/17/2017 6:28:20a 84 0 0 25 57 77.2 62.9 30.04 0.52 0.0 0 0.00 0.00 0.00 0.000
11/17/2017 6:29:23a 85 0 0 25 57 77.2 62.9 30.04 0.52 0.0 0 0.00 0.00 0.00 0.000
11/17/2017 6:30:23a 84 0 0 25 57 77.2 62.9 30.04 0.52 0.0 0 0.00 0.00 0.00 0.000
11/17/2017 6:31:32a 84 0 0 25 57 77.2 62.9 30.04 0.52 0.0 0 0.00 0.00 0.00 0.000
11/17/2017 6:32:33a 84 0 0 25 58 77.2 62.9 30.04 0.52 0.0 0 0.00 0.00 0.00 0.000
11/17/2017 6:33:33a 85 0 1 25 58 77.2 62.9 30.04 0.52 0.0 0 0.00 0.00 0.00 0.000
11/17/2017 6:34:39a 84 0 1 25 58 77.2 62.8 30.04 0.52 0.0 0 0.00 0.00 0.00 0.000
11/17/2017 6:35:40a 84 0 1 25 58 77.2 62.8 30.04 0.52 0.0 0 0.00 0.00 0.00 0.000
11/17/2017 6:36:40a 84 0 1 25 58 77.2 62.8 30.04 0.52 0.0 0 0.00 0.00 0.00 0.000
11/17/2017 6:37:46a 85 0 1 25 58 77.2 62.8 30.04 0.52 0.0 0 0.00 0.00 0.00 0.000
11/17/2017 6:38:47a 84 0 1 25 58 77.0 62.8 30.04 0.52 0.0 0 0.00 0.00 0.00 0.000
11/17/2017 6:39:50a 85 0 1 25 58 77.0 62.7 30.04 0.52 0.0 5 0.00 0.00 0.00 0.000
11/17/2017 6:40:50a 85 0 1 25 58 77.0 62.7 30.04 0.52 0.0 5 0.00 0.00 0.00 0.000
11/17/2017 6:41:51a 85 0 1 25 58 77.0 62.7 30.04 0.52 0.0 5 0.00 0.00 0.00 0.000
11/17/2017 6:42:51a 85 0 1 25 58 77.0 62.7 30.05 0.52 0.0 7 0.00 0.00 0.00 0.000
11/17/2017 6:44:54a 84 0 1 25 58 77.0 62.6 30.05 0.52 0.0 9 0.00 0.00 0.00 0.000
11/17/2017 6:45:55a 85 0 1 25 58 77.0 62.6 30.05 0.52 0.0 9 0.00 0.00 0.00 0.000
11/17/2017 6:47:07a 85 0 1 25 58 77.0 62.6 30.05 0.52 0.0 9 0.00 0.00 0.00 0.000
11/17/2017 6:48:07a 84 0 1 25 58 77.0 62.6 30.05 0.52 0.0 12 0.00 0.00 0.00 0.000
11/17/2017 6:49:13a 85 0 1 25 58 77.0 62.5 30.05 0.52 0.0 12 0.00 0.00 0.00 0.000
11/17/2017 6:50:17a 85 0 1 25 58 77.0 62.5 30.05 0.52 0.0 12 0.00 0.00 0.00 0.000
11/17/2017 6:51:17a 85 0 1 25 58 77.0 62.5 30.05 0.52 0.0 12 0.00 0.00 0.00 0.000
11/17/2017 6:52:17a 85 0 1 25 58 77.0 62.5 30.05 0.52 0.0 12 0.00 0.00 0.00 0.000
11/17/2017 6:53:21a 85 0 1 25 58 77.0 62.5 30.05 0.52 0.0 16 0.00 0.00 0.00 0.000
11/17/2017 6:54:21a 84 0 1 25 59 77.0 62.5 30.05 0.52 0.0 16 0.00 0.00 0.00 0.000
11/17/2017 6:55:22a 84 0 1 25 59 77.0 62.5 30.05 0.52 0.0 16 0.00 0.00 0.00 0.000
11/17/2017 6:56:31a 84 0 1 25 59 77.0 62.5 30.05 0.52 0.0 16 0.00 0.00 0.00 0.000
11/17/2017 6:57:31a 84 0 1 25 59 77.0 62.5 30.05 0.52 0.0 16 0.00 0.00 0.00 0.000
11/17/2017 6:58:32a 84 0 1 25 59 77.0 62.4 30.06 0.52 0.0 16 0.00 0.00 0.00 0.000
11/17/2017 6:59:35a 84 0 1 25 58 77.0 62.4 30.07 0.52 0.0 16 0.00 0.00 0.00 0.000
11/17/2017 7:00:35a 84 0 1 25 58 77.0 62.4 30.07 0.52 0.0 19 0.00 0.00 0.00 0.000
11/17/2017 7:01:36a 84 0 1 25 58 77.0 62.4 30.07 0.52 0.0 19 0.00 0.00 0.00 0.000
11/17/2017 7:02:36a 85 0 0 25 58 77.0 62.4 30.07 0.52 0.0 26 0.00 0.00 0.00 0.000
11/17/2017 7:03:36a 84 0 0 25 58 77.0 62.3 30.07 0.52 0.0 25 0.00 0.00 0.00 0.000
11/17/2017 7:04:36a 84 0 0 25 59 77.0 62.3 30.07 0.52 0.0 25 0.00 0.00 0.00 0.000
11/17/2017 7:05:40a 84 0 0 25 59 77.0 62.3 30.07 0.52 0.0 25 0.00 0.00 0.00 0.000
11/17/2017 7:06:43a 84 0 0 25 59 77.0 62.3 30.07 0.52 0.0 25 0.00 0.00 0.00 0.000
11/17/2017 7:07:43a 84 3 3 25 58 77.0 62.3 30.07 0.52 0.0 25 0.00 0.00 0.00 0.000
11/17/2017 7:08:47a 84 2 3 25 58 77.0 62.3 30.07 0.52 0.0 25 0.00 0.00 0.00 0.000
11/17/2017 7:10:54a 84 3 3 25 58 77.0 62.4 30.07 0.52 0.0 25 0.00 0.00 0.00 0.000
11/17/2017 7:11:54a 84 3 3 25 58 77.0 62.4 30.07 0.52 0.0 25 0.00 0.00 0.00 0.000
11/17/2017 7:13:00a 84 2 3 25 58 77.0 62.4 30.07 0.52 0.0 25 0.00 0.00 0.00 0.000
11/17/2017 7:14:00a 84 3 4 25 58 77.0 62.4 30.07 0.52 0.0 25 0.00 0.00 0.00 0.000
11/17/2017 7:16:04a 84 0 4 25 58 77.0 62.5 30.07 0.52 0.0 26 0.00 0.00 0.00 0.000
11/17/2017 7:18:08a 84 4 4 25 59 77.0 62.5 30.07 0.52 0.0 28 0.00 0.00 0.00 0.000
11/17/2017 7:19:11a 84 3 4 25 58 77.0 62.6 30.07 0.52 0.0 28 0.00 0.00 0.00 0.000
11/17/2017 7:20:14a 84 3 4 25 58 77.0 62.6 30.07 0.52 0.0 28 0.00 0.00 0.00 0.000
11/17/2017 7:21:15a 84 3 4 25 58 77.0 62.6 30.07 0.52 0.0 28 0.00 0.00 0.00 0.000
11/17/2017 7:22:15a 84 3 4 25 58 77.0 62.6 30.07 0.52 0.0 28 0.00 0.00 0.00 0.000
11/17/2017 7:23:15a 83 2 4 25 58 77.0 62.6 30.07 0.52 0.0 25 0.00 0.00 0.00 0.000
11/17/2017 7:25:22a 83 4 4 25 58 77.0 62.6 30.07 0.52 0.0 21 0.00 0.00 0.00 0.000
11/17/2017 7:27:23a 83 4 4 25 58 77.0 62.6 30.07 0.52 0.0 21 0.00 0.00 0.00 0.000
11/17/2017 7:28:23a 83 4 4 25 58 77.0 62.7 30.08 0.52 0.0 26 0.00 0.00 0.00 0.000
11/17/2017 7:29:23a 83 3 4 25 58 77.0 62.7 30.08 0.52 0.0 26 0.00 0.00 0.00 0.000
11/17/2017 7:30:26a 83 4 4 25 58 77.0 62.7 30.08 0.52 0.0 28 0.00 0.00 0.00 0.000
11/17/2017 7:31:30a 83 4 4 25 58 77.0 62.7 30.08 0.52 0.0 28 0.00 0.00 0.00 0.000
11/17/2017 7:32:30a 83 4 4 25 58 77.0 62.7 30.08 0.52 0.0 28 0.00 0.00 0.00 0.000
11/17/2017 7:33:30a 83 3 4 25 59 77.0 62.7 30.08 0.52 0.0 28 0.00 0.00 0.00 0.000
11/17/2017 7:34:31a 83 2 4 25 59 77.0 62.7 30.08 0.52 0.0 26 0.00 0.00 0.00 0.000
11/17/2017 7:35:34a 83 2 4 25 59 77.0 62.7 30.08 0.52 0.0 25 0.00 0.00 0.00 0.000
11/17/2017 7:36:35a 83 2 4 25 59 77.0 62.7 30.08 0.52 0.0 25 0.00 0.00 0.00 0.000
11/17/2017 7:38:38a 83 3 4 25 59 77.0 62.7 30.08 0.52 0.0 23 0.00 0.00 0.00 0.000
11/17/2017 7:39:38a 83 0 4 25 59 77.0 62.7 30.08 0.52 0.0 25 0.00 0.00 0.00 0.000
11/17/2017 7:40:39a 83 3 4 25 59 77.0 62.7 30.08 0.52 0.0 26 0.00 0.00 0.00 0.000
11/17/2017 7:41:39a 83 3 4 25 59 77.0 62.7 30.08 0.52 0.0 26 0.00 0.00 0.00 0.000
11/17/2017 7:42:39a 83 4 4 25 59 77.0 62.7 30.08 0.52 0.0 30 0.00 0.00 0.00 0.000
11/17/2017 7:43:40a 83 2 4 25 59 77.0 62.7 30.08 0.52 0.0 35 0.00 0.00 0.00 0.000
11/17/2017 7:44:40a 83 2 4 25 59 77.0 62.7 30.08 0.52 0.0 39 0.00 0.00 0.00 0.000
11/17/2017 7:45:41a 83 2 4 25 59 77.0 62.7 30.08 0.52 0.0 39 0.00 0.00 0.00 0.000
11/17/2017 7:46:47a 83 2 4 25 59 77.0 62.7 30.08 0.52 0.0 39 0.00 0.00 0.00 0.000
11/17/2017 7:47:53a 83 3 4 25 60 77.0 62.7 30.08 0.52 0.0 53 0.00 0.00 0.00 0.000
11/17/2017 7:48:54a 83 2 4 25 60 77.0 62.7 30.08 0.52 0.0 54 0.00 0.00 0.00 0.000
11/17/2017 7:49:57a 83 3 4 25 60 77.0 62.7 30.08 0.52 0.0 53 0.00 0.00 0.00 0.000
11/17/2017 7:52:01a 83 3 4 25 60 77.0 62.7 30.08 0.52 0.0 53 0.00 0.00 0.00 0.000
11/17/2017 7:53:01a 83 1 4 26 60 77.0 62.7 30.08 0.52 0.0 53 0.00 0.00 0.00 0.000
11/17/2017 7:54:08a 83 2 4 26 60 76.8 62.7 30.08 0.52 0.0 51 0.00 0.00 0.00 0.000
11/17/2017 7:55:15a 83 2 4 26 60 77.0 62.7 30.08 0.52 0.0 51 0.00 0.00 0.00 0.000
11/17/2017 7:56:15a 83 2 4 26 60 77.0 62.7 30.08 0.52 0.0 51 0.00 0.00 0.00 0.000
11/17/2017 7:57:16a 83 2 4 26 60 77.0 62.7 30.08 0.52 0.0 51 0.00 0.00 0.00 0.000
11/17/2017 7:58:16a 83 0 4 26 60 77.0 62.6 30.09 0.52 0.0 47 0.00 0.00 0.00 0.000
11/17/2017 7:59:17a 83 2 4 26 60 77.0 62.7 30.09 0.52 0.0 46 0.00 0.00 0.00 0.000
11/17/2017 8:00:20a 83 1 4 26 60 77.0 62.6 30.09 0.52 0.0 44 0.00 0.00 0.00 0.000
11/17/2017 8:01:23a 83 1 4 26 60 77.0 62.6 30.09 0.52 0.0 44 0.00 0.00 0.00 0.000
11/17/2017 8:02:36a 83 0 1 26 60 77.0 62.7 30.09 0.52 0.0 47 0.00 0.00 0.00 0.000
11/17/2017 8:03:36a 83 0 1 26 61 77.0 62.7 30.09 0.52 0.0 51 0.00 0.00 0.00 0.000
11/17/2017 8:04:40a 83 2 2 26 61 77.0 62.6 30.10 0.52 0.0 54 0.00 0.00 0.00 0.000
11/17/2017 8:05:43a 83 1 2 26 61 77.0 62.7 30.10 0.52 0.0 53 0.00 0.00 0.00 0.000
11/17/2017 8:06:43a 83 1 2 26 61 77.0 62.7 30.10 0.52 0.0 53 0.00 0.00 0.00 0.000
11/17/2017 8:07:43a 83 1 2 26 61 77.0 62.6 30.10 0.52 0.0 53 0.00 0.00 0.00 0.000
11/17/2017 8:08:47a 83 0 2 26 61 77.0 62.6 30.11 0.52 0.0 49 0.00 0.00 0.00 0.000
11/17/2017 8:09:47a 83 0 2 26 61 77.0 62.6 30.11 0.52 0.0 44 0.00 0.00 0.00 0.000
11/17/2017 8:10:47a 83 1 2 26 61 77.0 62.7 30.11 0.52 0.0 40 0.00 0.00 0.00 0.000
11/17/2017 8:11:48a 83 1 2 26 61 77.0 62.7 30.11 0.52 0.0 40 0.00 0.00 0.00 0.000
11/17/2017 8:12:48a 83 1 2 26 61 77.0 62.6 30.11 0.52 0.0 37 0.00 0.00 0.00 0.000
11/17/2017 8:13:51a 83 0 2 26 61 77.0 62.6 30.12 0.52 0.0 37 0.00 0.00 0.00 0.000
11/17/2017 8:14:51a 83 2 2 26 61 77.0 62.6 30.11 0.52 0.0 39 0.00 0.00 0.00 0.000
11/17/2017 8:15:52a 83 1 2 26 61 77.0 62.6 30.11 0.52 0.0 40 0.00 0.00 0.00 0.000
11/17/2017 8:16:55a 83 1 2 26 61 77.0 62.6 30.11 0.52 0.0 40 0.00 0.00 0.00 0.000
11/17/2017 8:17:55a 83 3 3 26 61 77.0 62.6 30.11 0.52 0.0 58 0.00 0.00 0.00 0.000
11/17/2017 8:18:56a 83 2 3 26 61 77.0 62.6 30.11 0.52 0.0 62 0.00 0.00 0.00 0.000
11/17/2017 8:19:56a 83 2 3 26 61 77.0 62.6 30.11 0.52 0.0 60 0.00 0.00 0.00 0.000
11/17/2017 8:21:02a 83 1 3 26 61 77.0 62.6 30.11 0.52 0.0 60 0.00 0.00 0.00 0.000
11/17/2017 8:22:02a 83 1 3 26 61 77.0 62.6 30.11 0.52 0.0 60 0.00 0.00 0.00 0.000
11/17/2017 8:23:03a 83 0 3 26 61 77.0 62.6 30.10 0.52 0.0 67 0.00 0.00 0.00 0.000
11/17/2017 8:24:03a 83 2 3 26 61 77.0 62.6 30.10 0.52 0.0 70 0.00 0.00 0.00 0.000
11/17/2017 8:25:03a 83 3 3 26 61 77.0 62.6 30.10 0.52 0.0 72 0.00 0.00 0.00 0.000
11/17/2017 8:26:04a 83 3 3 26 61 77.0 62.6 30.10 0.52 0.0 72 0.00 0.00 0.00 0.000
11/17/2017 8:27:04a 83 3 3 26 61 77.0 62.6 30.10 0.52 0.0 72 0.00 0.00 0.00 0.000
11/17/2017 8:28:04a 83 1 3 26 61 77.0 62.5 30.10 0.52 0.0 69 0.00 0.00 0.00 0.000
11/17/2017 8:29:05a 83 1 3 26 61 77.0 62.6 30.10 0.52 0.0 72 0.00 0.00 0.00 0.000
11/17/2017 8:30:08a 83 1 3 26 61 77.0 62.6 30.10 0.52 0.0 76 0.00 0.00 0.00 0.000
11/17/2017 8:31:08a 83 1 3 26 61 77.0 62.6 30.10 0.52 0.0 76 0.00 0.00 0.00 0.000
11/17/2017 8:32:09a 83 1 3 26 61 77.0 62.6 30.10 0.52 0.0 76 0.00 0.00 0.00 0.000
11/17/2017 8:33:09a 83 0 0 27 61 77.0 62.6 30.11 0.52 0.0 76 0.00 0.00 0.00 0.000
11/17/2017 8:34:12a 83 0 0 27 61 77.0 62.6 30.11 0.52 0.0 81 0.00 0.00 0.00 0.000
11/17/2017 8:35:13a 83 1 1 27 61 77.0 62.6 30.11 0.52 0.0 86 0.00 0.00 0.00 0.000
11/17/2017 8:36:13a 83 1 1 27 61 77.0 62.6 30.11 0.52 0.0 86 0.00 0.00 0.00 0.000
11/17/2017 8:37:16a 83 1 1 27 61 77.0 62.6 30.11 0.52 0.0 86 0.00 0.00 0.00 0.000
11/17/2017 8:38:20a 83 1 2 27 62 77.0 62.6 30.11 0.52 0.0 107 0.00 0.00 0.00 0.000
11/17/2017 8:39:20a 83 1 2 27 61 77.0 62.6 30.11 0.52 0.0 111 0.00 0.00 0.00 0.000
11/17/2017 8:40:20a 83 1 3 27 61 77.0 62.6 30.11 0.52 0.0 113 0.00 0.00 0.00 0.000
11/17/2017 8:41:20a 83 1 3 27 61 77.0 62.6 30.11 0.52 0.0 113 0.00 0.00 0.00 0.000
11/17/2017 8:42:24a 83 0 3 27 61 77.0 62.6 30.11 0.52 0.0 113 0.00 0.00 0.00 0.000
11/17/2017 8:43:24a 83 2 3 27 61 77.0 62.6 30.11 0.52 0.0 109 0.00 0.00 0.00 0.000
11/17/2017 8:45:31a 79 3 4 27 61 77.0 62.6 30.11 0.52 0.0 105 0.00 0.00 0.00 0.000
11/17/2017 8:46:58a 79 3 4 27 61 77.0 62.6 30.11 0.52 0.0 105 0.00 0.00 0.00 0.000
11/17/2017 8:47:58a 79 3 4 27 61 77.0 62.6 30.11 0.52 0.0 105 0.00 0.00 0.00 0.000
11/17/2017 8:49:01a 79 2 2 27 61 77.2 62.6 30.11 0.52 0.0 105 0.00 0.00 0.00 0.000
11/17/2017 8:50:02a 79 1 4 27 61 77.2 62.7 30.11 0.52 0.0 105 0.00 0.00 0.00 0.000
11/17/2017 8:51:02a 79 1 4 27 61 77.2 62.7 30.11 0.52 0.0 105 0.00 0.00 0.00 0.000
11/17/2017 8:53:03a 79 3 4 27 61 77.2 62.7 30.11 0.52 0.0 104 0.00 0.00 0.00 0.000
11/17/2017 8:54:03a 79 3 4 27 60 77.2 62.7 30.11 0.52 0.0 105 0.00 0.00 0.00 0.000
11/17/2017 8:55:04a 79 3 4 27 60 77.2 62.7 30.11 0.52 0.0 107 0.00 0.00 0.00 0.000
11/17/2017 8:56:04a 79 3 4 27 60 77.2 62.7 30.11 0.52 0.0 107 0.00 0.00 0.00 0.000
11/17/2017 8:57:04a 79 3 4 27 60 77.2 62.7 30.11 0.52 0.0 107 0.00 0.00 0.00 0.000
11/17/2017 8:58:08a 79 0 4 27 60 77.2 62.7 30.11 0.52 0.5 113 0.00 0.00 0.00 0.000
11/17/2017 8:59:08a 79 1 4 27 60 77.2 62.7 30.11 0.52 0.5 116 0.00 0.00 0.00 0.000
11/17/2017 9:00:29a 79 0 4 27 60 77.2 62.7 30.11 0.52 0.6 121 0.00 0.00 0.00 0.000
11/17/2017 9:01:28a 79 0 4 27 60 77.2 62.7 30.11 0.52 0.6 121 0.00 0.00 0.00 0.000
11/17/2017 9:02:29a 79 0 4 27 60 77.2 62.7 30.11 0.52 0.6 121 0.00 0.00 0.00 0.000
11/17/2017 9:03:57a 79 2 4 27 60 77.2 62.8 30.11 0.52 0.7 125 0.00 0.00 0.00 0.000
11/17/2017 9:04:57a 79 2 4 27 60 77.2 62.8 30.12 0.52 0.7 123 0.00 0.00 0.00 0.000
11/17/2017 9:05:57a 79 2 4 27 60 77.2 62.8 30.12 0.52 0.7 123 0.00 0.00 0.00 0.000
11/17/2017 9:08:04a 79 2 4 28 60 77.2 62.8 30.12 0.52 0.7 107 0.00 0.00 0.00 0.000
11/17/2017 9:09:04a 79 2 4 28 60 77.2 62.8 30.12 0.52 0.7 109 0.00 0.00 0.00 0.000
11/17/2017 9:10:05a 79 3 4 28 60 77.2 62.9 30.12 0.52 0.7 109 0.00 0.00 0.00 0.000
11/17/2017 9:11:08a 79 3 4 28 60 77.2 62.9 30.12 0.52 0.7 109 0.00 0.00 0.00 0.000
11/17/2017 9:12:08a 79 3 4 28 60 77.2 62.9 30.12 0.52 0.7 109 0.00 0.00 0.00 0.000
11/17/2017 9:13:07a 79 1 4 28 60 77.2 62.9 30.12 0.52 0.8 132 0.00 0.00 0.00 0.000
11/17/2017 9:14:08a 78 2 4 28 60 77.2 62.9 30.12 0.52 0.9 156 0.00 0.00 0.00 0.000
11/17/2017 9:15:11a 78 3 4 28 60 77.2 63.0 30.12 0.52 0.9 156 0.00 0.00 0.00 0.000
11/17/2017 9:16:14a 78 3 4 28 60 77.2 63.0 30.12 0.52 0.9 156 0.00 0.00 0.00 0.000
11/17/2017 9:17:15a 78 3 4 28 60 77.2 63.0 30.12 0.52 0.9 156 0.00 0.00 0.00 0.000
11/17/2017 9:18:18a 78 2 3 28 60 77.2 63.0 30.12 0.52 0.9 113 0.00 0.00 0.00 0.000
11/17/2017 9:19:18a 78 2 3 28 60 77.2 63.0 30.12 0.52 0.8 105 0.00 0.00 0.00 0.000
11/17/2017 9:20:18a 77 4 4 28 60 77.2 63.1 30.12 0.52 0.9 109 0.00 0.00 0.00 0.000
11/17/2017 9:21:19a 77 4 4 28 60 77.2 63.1 30.12 0.52 0.9 109 0.00 0.00 0.00 0.000
11/17/2017 9:22:22a 77 4 4 28 60 77.2 63.1 30.12 0.52 0.9 109 0.00 0.00 0.00 0.000
11/17/2017 9:23:26a 78 0 4 28 59 77.2 63.1 30.12 0.52 1.2 357 0.00 0.00 0.00 0.000
11/17/2017 9:24:29a 78 1 4 28 60 77.2 63.2 30.12 0.52 1.3 329 0.00 0.00 0.00 0.000
11/17/2017 9:25:30a 77 0 4 28 59 77.3 63.2 30.12 0.52 1.3 292 0.00 0.00 0.00 0.000
11/17/2017 9:26:34a 77 0 4 28 59 77.3 63.2 30.12 0.52 1.3 292 0.00 0.00 0.00 0.000
11/17/2017 9:27:37a 77 3 4 28 59 77.3 63.3 30.11 0.52 1.3 417 0.00 0.00 0.00 0.000
11/17/2017 9:28:37a 78 3 4 28 59 77.3 63.3 30.11 0.52 1.4 439 0.00 0.00 0.00 0.000
11/17/2017 9:30:38a 71 2 5 28 59 77.3 63.4 30.11 0.52 1.4 446 0.00 0.00 0.00 0.000
11/17/2017 9:31:38a 71 2 5 28 59 77.3 63.4 30.11 0.52 1.4 446 0.00 0.00 0.00 0.000
11/17/2017 9:33:42a 61 1 4 28 59 77.3 63.7 30.11 0.52 1.5 501 0.00 0.00 0.00 0.000
11/17/2017 9:35:43a 61 1 4 28 58 77.3 63.8 30.11 0.52 1.4 501 0.00 0.00 0.00 0.000
11/17/2017 9:36:43a 61 1 4 28 58 77.3 63.8 30.11 0.52 1.4 501 0.00 0.00 0.00 0.000
11/17/2017 9:37:46a 112 1 4 28 59 77.3 64.0 30.11 0.52 1.4 281 0.00 0.00 0.00 0.000
11/17/2017 9:38:47a 112 2 4 28 58 77.3 64.0 30.11 0.52 1.4 281 0.00 0.00 0.00 0.000
11/17/2017 9:39:47a 112 1 4 28 58 77.3 64.1 30.12 0.52 1.3 369 0.00 0.00 0.00 0.000
11/17/2017 9:40:50a 112 2 4 28 58 77.3 64.1 30.12 0.52 1.3 369 0.00 0.00 0.00 0.000
11/17/2017 9:41:54a 112 2 4 28 58 77.3 64.1 30.12 0.52 1.3 369 0.00 0.00 0.00 0.000
11/17/2017 9:42:54a 127 4 4 28 58 77.3 64.3 30.11 0.52 1.6 476 0.00 0.00 0.00 0.000
11/17/2017 9:43:54a 127 4 5 28 58 77.3 64.4 30.12 0.52 1.6 473 0.00 0.00 0.00 0.000
11/17/2017 9:44:54a 125 5 5 28 58 77.3 64.4 30.12 0.52 1.6 471 0.00 0.00 0.00 0.000
11/17/2017 9:45:55a 112 6 6 28 58 77.3 64.5 30.12 0.52 1.6 471 0.00 0.00 0.00 0.000
11/17/2017 9:46:55a 112 6 6 28 58 77.3 64.5 30.12 0.52 1.6 471 0.00 0.00 0.00 0.000
11/17/2017 9:47:55a 115 1 2 28 57 77.3 64.6 30.11 0.52 1.7 469 0.00 0.00 0.00 0.000
11/17/2017 9:48:56a 115 0 3 28 57 77.3 64.7 30.11 0.52 1.7 471 0.00 0.00 0.00 0.000
11/17/2017 9:50:56a 46 4 4 28 57 77.3 64.7 30.11 0.52 1.6 436 0.00 0.00 0.00 0.000
11/17/2017 9:51:56a 46 4 4 28 57 77.3 64.7 30.11 0.52 1.6 436 0.00 0.00 0.00 0.000
11/17/2017 9:53:00a 54 3 4 28 56 77.3 64.8 30.11 0.52 1.7 476 0.00 0.00 0.00 0.000
11/17/2017 9:54:01a 53 1 4 28 55 77.3 64.9 30.11 0.52 1.7 480 0.00 0.00 0.00 0.000
11/17/2017 9:55:01a 53 0 4 28 55 77.3 65.0 30.11 0.52 1.7 478 0.00 0.00 0.00 0.000
11/17/2017 9:56:01a 53 0 4 28 55 77.3 65.0 30.11 0.52 1.7 478 0.00 0.00 0.00 0.000
11/17/2017 9:57:04a 53 0 4 28 55 77.3 65.0 30.11 0.52 1.7 478 0.00 0.00 0.00 0.000
11/17/2017 9:58:05a 94 5 6 29 56 77.3 65.2 30.11 0.52 1.8 485 0.00 0.00 0.00 0.000
11/17/2017 9:59:05a 93 2 6 29 55 77.3 65.2 30.11 0.52 1.8 482 0.00 0.00 0.00 0.000
11/17/2017 10:00:05a 93 2 6 29 55 77.3 65.3 30.11 0.52 1.7 482 0.00 0.00 0.00 0.000
11/17/2017 10:01:09a 93 2 6 29 55 77.3 65.3 30.11 0.52 1.7 482 0.00 0.00 0.00 0.000
11/17/2017 10:02:09a 93 2 6 29 55 77.3 65.3 30.11 0.52 1.7 482 0.00 0.00 0.00 0.000
11/17/2017 10:03:09a 50 2 5 29 55 77.5 65.4 30.12 0.52 1.8 496 0.00 0.00 0.00 0.000
11/17/2017 10:04:10a 50 1 5 29 55 77.5 65.4 30.12 0.52 1.8 496 0.00 0.00 0.00 0.000
11/17/2017 10:05:10a 19 3 5 29 54 77.5 65.4 30.12 0.52 1.8 497 0.00 0.00 0.00 0.000
11/17/2017 10:06:10a 19 3 5 29 54 77.5 65.4 30.12 0.52 1.8 497 0.00 0.00 0.00 0.000
11/17/2017 10:07:11a 19 3 5 29 54 77.5 65.4 30.12 0.52 1.8 497 0.00 0.00 0.00 0.000
11/17/2017 10:08:11a 69 3 5 29 54 77.5 65.5 30.11 0.52 1.9 503 0.00 0.00 0.00 0.000
11/17/2017 10:09:17a 115 2 5 29 55 77.5 65.6 30.11 0.52 1.9 504 0.00 0.00 0.00 0.000
11/17/2017 10:10:21a 115 1 5 29 55 77.5 65.6 30.11 0.52 1.9 506 0.00 0.00 0.00 0.000
11/17/2017 10:11:24a 115 1 5 29 55 77.5 65.6 30.11 0.52 1.9 506 0.00 0.00 0.00 0.000
11/17/2017 10:12:27a 115 1 5 29 55 77.5 65.6 30.11 0.52 1.9 506 0.00 0.00 0.00 0.000
11/17/2017 10:13:28a 112 6 6 29 54 77.5 65.8 30.11 0.52 2.0 517 0.00 0.00 0.00 0.000
11/17/2017 10:14:28a 109 5 6 29 54 77.5 65.9 30.11 0.52 2.0 519 0.00 0.00 0.00 0.000
11/17/2017 10:15:34a 108 3 6 29 54 77.5 66.0 30.11 0.52 2.0 517 0.00 0.00 0.00 0.000
11/17/2017 10:16:35a 108 3 6 29 54 77.5 66.0 30.11 0.52 2.0 517 0.00 0.00 0.00 0.000
11/17/2017 10:17:35a 108 3 6 29 54 77.5 66.0 30.11 0.52 2.0 517 0.00 0.00 0.00 0.000
11/17/2017 10:18:35a 110 3 6 29 54 77.5 66.1 30.11 0.52 2.0 524 0.00 0.00 0.00 0.000
11/17/2017 10:19:36a 110 2 6 29 54 77.5 66.2 30.11 0.52 2.0 531 0.00 0.00 0.00 0.000
11/17/2017 10:20:39a 110 0 6 29 54 77.5 66.2 30.11 0.52 2.0 538 0.00 0.00 0.00 0.000
11/17/2017 10:21:40a 110 0 6 29 54 77.5 66.2 30.11 0.52 2.0 538 0.00 0.00 0.00 0.000
11/17/2017 10:22:43a 110 0 6 29 53 77.5 66.4 30.11 0.52 2.0 529 0.00 0.00 0.00 0.000
11/17/2017 10:23:43a 110 2 6 29 53 77.5 66.4 30.11 0.52 2.0 533 0.00 0.00 0.00 0.000
11/17/2017 10:24:44a 91 4 6 29 53 77.5 66.4 30.10 0.52 2.0 536 0.00 0.00 0.00 0.000
11/17/2017 10:25:44a 91 3 6 29 53 77.5 66.4 30.10 0.52 2.0 538 0.00 0.00 0.00 0.000
11/17/2017 10:26:44a 91 3 6 29 53 77.5 66.4 30.10 0.52 2.0 538 0.00 0.00 0.00 0.000
11/17/2017 10:28:45a 80 0 6 29 52 77.7 66.6 30.11 0.52 2.1 561 0.00 0.00 0.00 0.000
11/17/2017 10:29:46a 80 0 6 29 52 77.7 66.6 30.11 0.52 2.1 559 0.00 0.00 0.00 0.000
11/17/2017 10:30:46a 80 1 6 29 52 77.7 66.6 30.11 0.52 2.1 568 0.00 0.00 0.00 0.000
11/17/2017 10:31:49a 80 1 6 29 52 77.7 66.6 30.11 0.52 2.1 568 0.00 0.00 0.00 0.000
11/17/2017 10:32:53a 65 1 1 29 52 77.7 66.9 30.11 0.52 2.1 485 0.00 0.00 0.00 0.000
11/17/2017 10:33:53a 65 1 1 29 51 77.5 66.9 30.11 0.52 2.1 345 0.00 0.00 0.00 0.000
11/17/2017 10:34:53a 75 4 5 29 51 77.5 67.0 30.11 0.52 1.7 399 0.00 0.00 0.00 0.000
11/17/2017 10:37:03a 75 3 5 29 51 77.5 67.0 30.11 0.52 1.7 399 0.00 0.00 0.00 0.000
11/17/2017 10:38:03a 75 3 5 29 51 77.5 67.0 30.11 0.52 1.7 399 0.00 0.00 0.00 0.000
11/17/2017 10:39:03a 129 3 6 29 51 77.5 67.2 30.11 0.52 1.9 399 0.00 0.00 0.00 0.000
11/17/2017 10:40:04a 130 3 6 29 51 77.5 67.2 30.11 0.52 2.2 462 0.00 0.00 0.00 0.000
11/17/2017 10:41:07a 130 3 6 29 51 77.5 67.2 30.11 0.52 2.2 462 0.00 0.00 0.00 0.000
11/17/2017 10:42:11a 130 3 6 29 51 77.5 67.2 30.11 0.52 2.2 462 0.00 0.00 0.00 0.000
11/17/2017 10:43:11a 125 2 6 29 51 77.5 67.3 30.11 0.52 2.1 441 0.00 0.00 0.00 0.000
11/17/2017 10:45:11a 125 0 6 29 51 77.5 67.3 30.10 0.52 2.2 547 0.00 0.00 0.00 0.000
11/17/2017 10:46:12a 125 0 6 29 51 77.5 67.3 30.10 0.52 2.2 547 0.00 0.00 0.00 0.000
11/17/2017 10:47:15a 125 0 6 29 51 77.5 67.3 30.10 0.52 2.2 547 0.00 0.00 0.00 0.000
11/17/2017 10:49:19a 140 1 6 29 51 77.5 67.3 30.10 0.52 2.1 415 0.00 0.00 0.00 0.000
11/17/2017 10:50:19a 139 4 6 30 51 77.5 67.2 30.10 0.52 2.1 469 0.00 0.00 0.00 0.000
11/17/2017 10:51:19a 139 4 6 30 51 77.5 67.2 30.10 0.52 2.1 469 0.00 0.00 0.00 0.000
11/17/2017 10:52:20a 139 4 6 30 51 77.5 67.2 30.10 0.52 2.1 469 0.00 0.00 0.00 0.000
11/17/2017 10:53:20a 180 6 7 30 51 77.5 67.3 30.10 0.52 2.1 487 0.00 0.00 0.00 0.000
11/17/2017 10:54:20a 176 5 7 30 50 77.5 67.3 30.10 0.52 2.1 545 0.00 0.00 0.00 0.000
11/17/2017 10:55:21a 193 5 7 30 50 77.5 67.3 30.10 0.52 2.0 464 0.00 0.00 0.00 0.000
11/17/2017 10:56:21a 193 5 7 30 50 77.5 67.3 30.10 0.52 2.0 464 0.00 0.00 0.00 0.000
11/17/2017 10:57:22a 193 5 7 30 50 77.5 67.3 30.10 0.52 2.0 464 0.00 0.00 0.00 0.000
11/17/2017 10:58:22a 170 3 7 30 50 77.5 67.2 30.10 0.52 1.9 345 0.00 0.00 0.00 0.000
11/17/2017 11:00:22a 170 1 7 30 50 77.5 67.2 30.10 0.52 2.0 318 0.00 0.00 0.00 0.000
11/17/2017 11:01:23a 170 1 7 30 50 77.5 67.2 30.10 0.52 2.0 318 0.00 0.00 0.00 0.000
11/17/2017 11:02:23a 171 1 7 30 50 77.5 67.2 30.10 0.52 2.4 552 0.00 0.00 0.00 0.000
11/17/2017 11:03:23a 171 2 2 30 50 77.5 67.2 30.10 0.52 2.3 599 0.00 0.00 0.00 0.000
11/17/2017 11:05:24a 171 0 2 30 49 77.5 67.2 30.10 0.52 2.3 594 0.00 0.00 0.00 0.000
11/17/2017 11:06:30a 171 0 2 30 49 77.5 67.2 30.10 0.52 2.3 594 0.00 0.00 0.00 0.000
11/17/2017 11:07:34a 171 1 2 30 50 77.5 67.3 30.09 0.52 2.3 587 0.00 0.00 0.00 0.000
11/17/2017 11:08:34a 171 1 3 30 50 77.5 67.4 30.09 0.52 2.3 594 0.00 0.00 0.00 0.000
11/17/2017 11:09:34a 171 4 5 30 50 77.5 67.5 30.09 0.52 2.3 594 0.00 0.00 0.00 0.000
11/17/2017 11:10:35a 171 3 5 30 50 77.5 67.5 30.09 0.52 2.3 594 0.00 0.00 0.00 0.000
11/17/2017 11:11:35a 171 3 5 30 50 77.5 67.5 30.09 0.52 2.3 594 0.00 0.00 0.00 0.000
11/17/2017 11:12:36a 112 4 5 30 49 77.5 67.7 30.09 0.52 2.3 606 0.00 0.00 0.00 0.000
11/17/2017 11:13:39a 123 4 7 30 49 77.5 67.7 30.09 0.52 2.4 605 0.00 0.00 0.00 0.000
11/17/2017 11:14:40a 118 1 7 31 48 77.5 67.7 30.09 0.52 2.4 596 0.00 0.00 0.00 0.000
11/17/2017 11:15:46a 118 2 7 31 49 77.5 67.7 30.09 0.52 2.4 596 0.00 0.00 0.00 0.000
11/17/2017 11:16:47a 118 2 7 31 49 77.5 67.7 30.09 0.52 2.4 596 0.00 0.00 0.00 0.000
11/17/2017 11:17:47a 148 7 7 31 49 77.5 67.9 30.09 0.52 2.3 585 0.00 0.00 0.00 0.000
11/17/2017 11:18:47a 134 3 7 31 49 77.5 68.0 30.09 0.52 2.3 555 0.00 0.00 0.00 0.000
11/17/2017 11:19:51a 134 1 7 31 49 77.5 68.0 30.08 0.52 2.3 591 0.00 0.00 0.00 0.000
11/17/2017 11:20:51a 134 2 7 31 49 77.5 68.1 30.08 0.52 2.3 591 0.00 0.00 0.00 0.000
11/17/2017 11:21:55a 134 2 7 31 49 77.5 68.1 30.08 0.52 2.3 591 0.00 0.00 0.00 0.000
11/17/2017 11:22:55a 134 1 7 31 48 77.5 68.1 30.08 0.52 2.0 497 0.00 0.00 0.00 0.000
11/17/2017 11:23:58a 134 1 7 31 48 77.5 68.2 30.08 0.52 2.4 497 0.00 0.00 0.00 0.000
11/17/2017 11:24:59a 134 1 7 31 48 77.5 68.2 30.08 0.52 2.4 598 0.00 0.00 0.00 0.000
11/17/2017 11:26:02a 134 1 7 31 48 77.5 68.2 30.08 0.52 2.4 598 0.00 0.00 0.00 0.000
11/17/2017 11:27:02a 134 1 7 31 48 77.5 68.2 30.08 0.52 2.4 598 0.00 0.00 0.00 0.000
11/17/2017 11:28:03a 134 1 7 31 48 77.5 68.3 30.08 0.52 2.1 512 0.00 0.00 0.00 0.000
11/17/2017 11:29:03a 121 5 7 31 48 77.5 68.3 30.08 0.52 2.1 603 0.00 0.00 0.00 0.000
11/17/2017 11:30:06a 120 1 7 31 47 77.5 68.3 30.08 0.52 2.3 580 0.00 0.00 0.00 0.000
11/17/2017 11:31:07a 120 1 7 31 47 77.5 68.3 30.08 0.52 2.3 580 0.00 0.00 0.00 0.000
11/17/2017 11:32:07a 120 1 7 31 47 77.5 68.3 30.08 0.52 2.3 580 0.00 0.00 0.00 0.000
11/17/2017 11:34:08a 91 1 4 31 47 77.5 68.3 30.07 0.52 2.1 501 0.00 0.00 0.00 0.000
11/17/2017 11:35:08a 91 1 4 31 47 77.5 68.3 30.07 0.52 2.2 496 0.00 0.00 0.00 0.000
11/17/2017 11:36:08a 91 1 4 31 47 77.5 68.3 30.07 0.52 2.2 496 0.00 0.00 0.00 0.000
11/17/2017 11:37:11a 91 1 4 31 47 77.5 68.3 30.07 0.52 2.2 496 0.00 0.00 0.00 0.000
11/17/2017 11:38:12a 23 3 4 31 47 77.5 68.3 30.07 0.52 2.3 555 0.00 0.00 0.00 0.000
11/17/2017 11:39:12a 23 2 4 31 47 77.7 68.2 30.07 0.52 1.6 225 0.00 0.00 0.00 0.000
11/17/2017 11:40:15a 23 3 4 31 47 77.7 68.2 30.07 0.52 1.9 446 0.00 0.00 0.00 0.000
11/17/2017 11:41:16a 23 3 4 31 47 77.7 68.2 30.07 0.52 1.9 446 0.00 0.00 0.00 0.000
11/17/2017 11:42:16a 23 3 4 31 47 77.7 68.2 30.07 0.52 1.9 446 0.00 0.00 0.00 0.000
11/17/2017 11:43:19a 343 4 6 31 47 77.7 68.0 30.07 0.52 2.4 631 0.00 0.00 0.00 0.000
11/17/2017 11:44:23a 344 0 6 31 47 77.7 67.9 30.07 0.52 2.0 561 0.00 0.00 0.00 0.000
11/17/2017 11:46:23a 345 0 6 31 47 77.7 67.9 30.07 0.52 2.0 561 0.00 0.00 0.00 0.000
11/17/2017 11:47:33a 345 1 1 31 48 77.7 67.9 30.06 0.52 2.4 638 0.00 0.00 0.00 0.000
11/17/2017 11:48:36a 174 4 5 31 48 77.7 67.9 30.06 0.52 2.4 619 0.00 0.00 0.00 0.000
11/17/2017 11:49:36a 189 2 6 31 48 77.7 68.0 30.06 0.52 2.3 591 0.00 0.00 0.00 0.000
11/17/2017 11:50:37a 127 4 6 31 48 77.7 68.0 30.06 0.52 2.3 591 0.00 0.00 0.00 0.000
11/17/2017 11:51:37a 127 4 6 31 48 77.7 68.0 30.06 0.52 2.3 591 0.00 0.00 0.00 0.000
11/17/2017 11:52:40a 143 4 6 31 48 77.9 68.1 30.06 0.52 1.8 592 0.00 0.00 0.00 0.000
11/17/2017 11:53:44a 150 5 8 31 48 77.9 68.2 30.07 0.52 2.2 538 0.00 0.00 0.00 0.000
11/17/2017 11:55:44a 166 3 8 31 48 77.9 68.2 30.06 0.52 2.1 522 0.00 0.00 0.00 0.000
11/17/2017 11:56:45a 166 3 8 31 48 77.9 68.2 30.06 0.52 2.1 522 0.00 0.00 0.00 0.000
11/17/2017 11:57:48a 183 5 8 31 47 77.9 68.3 30.06 0.52 1.8 515 0.00 0.00 0.00 0.000
11/17/2017 11:58:48a 181 3 8 31 47 77.9 68.3 30.06 0.52 1.7 311 0.00 0.00 0.00 0.000
11/17/2017 11:59:48a 181 1 8 31 47 77.9 68.3 30.06 0.52 2.2 501 0.00 0.00 0.00 0.000
11/17/2017 12:00:47p 181 1 8 31 47 77.9 68.3 30.06 0.52 2.2 501 0.00 0.00 0.00 0.000
11/17/2017 12:01:47p 181 1 8 31 47 77.9 68.3 30.06 0.52 2.2 501 0.00 0.00 0.00 0.000
11/17/2017 12:02:49p 181 0 0 31 47 77.9 68.4 30.06 0.52 1.9 455 0.00 0.00 0.00 0.000
11/17/2017 12:03:51p 181 1 1 31 47 77.9 68.4 30.06 0.52 1.9 390 0.00 0.00 0.00 0.000
11/17/2017 12:04:51p 181 2 3 31 47 77.9 68.5 30.06 0.52 1.9 457 0.00 0.00 0.00 0.000
11/17/2017 12:05:53p 181 3 4 31 47 77.9 68.5 30.06 0.52 2.1 457 0.00 0.00 0.00 0.000
11/17/2017 12:06:52p 181 3 4 31 47 77.9 68.5 30.06 0.52 2.1 457 0.00 0.00 0.00 0.000
11/17/2017 12:07:53p 166 6 11 31 47 77.9 68.6 30.06 0.52 2.3 613 0.00 0.00 0.00 0.000
11/17/2017 12:09:00p 158 9 11 31 46 77.9 68.6 30.06 0.52 2.1 510 0.00 0.00 0.00 0.000
11/17/2017 12:10:00p 179 3 11 31 46 77.9 68.6 30.06 0.52 2.2 540 0.00 0.00 0.00 0.000
11/17/2017 12:11:03p 179 3 11 31 46 77.9 68.6 30.06 0.52 2.2 540 0.00 0.00 0.00 0.000
11/17/2017 12:13:04p 177 1 11 31 46 77.9 68.7 30.06 0.52 2.2 591 0.00 0.00 0.00 0.000
11/17/2017 12:14:04p 153 7 11 31 47 77.9 68.8 30.06 0.52 2.2 585 0.00 0.00 0.00 0.000
11/17/2017 12:15:05p 172 4 11 31 47 78.1 68.8 30.06 0.52 2.1 585 0.00 0.00 0.00 0.000
11/17/2017 12:16:08p 172 4 11 31 47 78.1 68.8 30.06 0.52 2.1 585 0.00 0.00 0.00 0.000
11/17/2017 12:17:08p 172 4 11 31 47 78.1 68.8 30.06 0.52 2.1 585 0.00 0.00 0.00 0.000
11/17/2017 12:18:08p 175 3 4 31 46 78.1 69.0 30.06 0.52 2.2 598 0.00 0.00 0.00 0.000
11/17/2017 12:19:15p 165 4 4 31 46 78.1 69.0 30.06 0.52 2.2 592 0.00 0.00 0.00 0.000
11/17/2017 12:20:15p 144 5 6 31 46 78.1 69.1 30.06 0.52 2.2 584 0.00 0.00 0.00 0.000
11/17/2017 12:21:16p 144 5 6 31 46 78.1 69.1 30.06 0.52 2.2 584 0.00 0.00 0.00 0.000
11/17/2017 12:23:16p 152 5 9 31 46 78.1 69.2 30.06 0.52 2.2 594 0.00 0.00 0.00 0.000
11/17/2017 12:24:16p 115 3 9 31 46 78.1 69.3 30.06 0.52 2.2 596 0.00 0.00 0.00 0.000
11/17/2017 12:25:20p 115 5 9 31 46 78.1 69.3 30.05 0.52 2.2 584 0.00 0.00 0.00 0.000
11/17/2017 12:26:20p 115 5 9 31 46 78.1 69.3 30.05 0.52 2.2 584 0.00 0.00 0.00 0.000
11/17/2017 12:27:24p 115 5 9 31 46 78.1 69.3 30.05 0.52 2.2 584 0.00 0.00 0.00 0.000
11/17/2017 12:28:24p 147 3 9 31 46 78.1 69.4 30.05 0.52 2.2 591 0.00 0.00 0.00 0.000
11/17/2017 12:29:24p 147 3 9 31 46 78.1 69.4 30.06 0.52 2.1 589 0.00 0.00 0.00 0.000
11/17/2017 12:30:31p 146 1 9 31 46 78.1 69.4 30.06 0.52 2.1 584 0.00 0.00 0.00 0.000
11/17/2017 12:31:31p 146 1 9 31 46 78.1 69.4 30.06 0.52 2.1 584 0.00 0.00 0.00 0.000
11/17/2017 12:32:34p 146 1 9 31 46 78.1 69.4 30.06 0.52 2.1 584 0.00 0.00 0.00 0.000
11/17/2017 12:33:38p 96 4 4 31 46 78.1 69.6 30.05 0.52 2.1 573 0.00 0.00 0.00 0.000
11/17/2017 12:34:38p 102 2 5 31 46 78.1 69.7 30.05 0.52 2.1 568 0.00 0.00 0.00 0.000
11/17/2017 12:35:38p 102 5 5 31 46 78.1 69.8 30.05 0.52 2.1 568 0.00 0.00 0.00 0.000
11/17/2017 12:36:39p 102 5 5 31 46 78.1 69.8 30.05 0.52 2.1 568 0.00 0.00 0.00 0.000
11/17/2017 12:37:42p 139 9 9 31 45 78.1 69.9 30.05 0.52 2.0 541 0.00 0.00 0.00 0.000
11/17/2017 12:38:42p 152 3 12 31 45 78.1 69.9 30.05 0.52 2.0 543 0.00 0.00 0.00 0.000
11/17/2017 12:39:43p 166 3 12 31 45 78.1 70.0 30.06 0.52 2.0 533 0.00 0.00 0.00 0.000
11/17/2017 12:40:50p 159 4 12 31 45 78.1 70.0 30.06 0.52 2.0 506 0.00 0.00 0.00 0.000
11/17/2017 12:41:50p 159 4 12 31 45 78.1 70.0 30.06 0.52 2.0 506 0.00 0.00 0.00 0.000
11/17/2017 12:42:51p 158 2 12 31 45 78.2 70.1 30.05 0.52 2.0 550 0.00 0.00 0.00 0.000
11/17/2017 12:43:51p 133 3 12 31 45 78.2 70.1 30.05 0.52 2.0 557 0.00 0.00 0.00 0.000
11/17/2017 12:44:51p 116 6 12 31 45 78.2 70.1 30.05 0.52 2.0 564 0.00 0.00 0.00 0.000
11/17/2017 12:45:52p 113 10 12 31 45 78.2 70.1 30.05 0.52 2.0 564 0.00 0.00 0.00 0.000
11/17/2017 12:46:55p 113 10 12 31 45 78.2 70.1 30.05 0.52 2.0 564 0.00 0.00 0.00 0.000
11/17/2017 12:47:55p 160 2 4 31 45 78.2 70.1 30.05 0.52 2.0 568 0.00 0.00 0.00 0.000
11/17/2017 12:48:56p 160 0 4 31 45 78.2 70.1 30.05 0.52 2.0 564 0.00 0.00 0.00 0.000
11/17/2017 12:49:56p 160 3 4 31 45 78.2 70.1 30.05 0.52 2.0 564 0.00 0.00 0.00 0.000
11/17/2017 12:50:56p 160 1 4 31 45 78.2 70.1 30.05 0.52 2.0 561 0.00 0.00 0.00 0.000

© All rights reserved. Unauthorized duplication or distribution is prohibited

Never base important decisions on this or any weather information obtained from the Internet

California State University, San Bernardino
5500 University Parkway, San Bernardino, CA. 92407
Phone: (909) 537-7558, Email: Weather Master
Last Updated: